Pastebin launched a little side project called VERYVIRAL.com, check it out ;-) Want more features on Pastebin? Sign Up, it's FREE!
Guest

xbmc.log

By: a guest on Jun 20th, 2010  |  syntax: XML  |  size: 91.61 KB  |  views: 66  |  expires: Never
download  |  raw  |  embed  |  report abuse  |  print
Text below is selected. Please press Ctrl+C to copy to your clipboard. (⌘+C on Mac)
  1. 00:04:52 T:2236 M:1533853696  NOTICE: -----------------------------------------------------------------------
  2. 00:04:52 T:2236 M:1533837312  NOTICE: Starting XBMC, Platform: Windows 7, 64-bit (WoW) build 7600. Built on Jun 20 2010 (SVN:31262, compiler 1500)
  3. 00:04:52 T:2236 M:1533837312  NOTICE: Intel(R) Core(TM)2 Duo CPU     T9400  @ 2.53GHz
  4. 00:04:52 T:2236 M:1533833216  NOTICE: Desktop Resolution: 1920x1200 32Bit at 59Hz
  5. 00:04:52 T:2236 M:1533833216  NOTICE: Running with administrator rights
  6. 00:04:52 T:2236 M:1533833216  NOTICE: special://xbmc/ is mapped to: C:\Program Files (x86)\XBMC
  7. 00:04:52 T:2236 M:1533833216  NOTICE: special://xbmcbin/ is mapped to: C:\Program Files (x86)\XBMC
  8. 00:04:52 T:2236 M:1533833216  NOTICE: special://masterprofile/ is mapped to: C:\Users\Nick\AppData\Roaming\XBMC\userdata
  9. 00:04:52 T:2236 M:1533833216  NOTICE: special://home/ is mapped to: C:\Users\Nick\AppData\Roaming\XBMC
  10. 00:04:52 T:2236 M:1533829120  NOTICE: special://temp/ is mapped to: C:\Users\Nick\AppData\Roaming\XBMC\cache
  11. 00:04:52 T:2236 M:1533829120  NOTICE: The executable running is: C:\Program Files (x86)\XBMC\XBMC.exe
  12. 00:04:52 T:2236 M:1533829120  NOTICE: Log File is located: C:\Users\Nick\AppData\Roaming\XBMC\xbmc.log
  13. 00:04:52 T:2236 M:1533829120  NOTICE: -----------------------------------------------------------------------
  14. 00:04:52 T:2236 M:1533804544  NOTICE: Setup SDL
  15. 00:04:52 T:2236 M:1533304832  NOTICE: Found screen: Generic PnP Monitor on NVIDIA GeForce 9800M GT, adapter 0.
  16. 00:04:52 T:2236 M:1533296640  NOTICE: Primary mode: 1920x1200 @ 59.94 - Full Screen
  17. 00:04:52 T:2236 M:1532784640  NOTICE: Additional mode: 640x480 @ 59.94 - Full Screen
  18. 00:04:52 T:2236 M:1532502016  NOTICE: Additional mode: 640x480 @ 60.00 - Full Screen
  19. 00:04:52 T:2236 M:1532215296  NOTICE: Additional mode: 640x480 @ 59.94 - Full Screen
  20. 00:04:52 T:2236 M:1532108800  NOTICE: Additional mode: 640x480 @ 60.00 - Full Screen
  21. 00:04:52 T:2236 M:1531883520  NOTICE: Additional mode: 640x480 @ 59.94 - Full Screen
  22. 00:04:52 T:2236 M:1531854848  NOTICE: Additional mode: 640x480 @ 60.00 - Full Screen
  23. 00:04:52 T:2236 M:1531715584  NOTICE: Additional mode: 720x480 @ 59.94 - Full Screen
  24. 00:04:52 T:2236 M:1531785216  NOTICE: Additional mode: 720x480 @ 60.00 - Full Screen
  25. 00:04:52 T:2236 M:1531609088  NOTICE: Additional mode: 720x480 @ 59.94 - Full Screen
  26. 00:04:52 T:2236 M:1531629568  NOTICE: Additional mode: 720x480 @ 60.00 - Full Screen
  27. 00:04:52 T:2236 M:1531699200  NOTICE: Additional mode: 720x480 @ 59.94 - Full Screen
  28. 00:04:52 T:2236 M:1531768832  NOTICE: Additional mode: 720x480 @ 60.00 - Full Screen
  29. 00:04:52 T:2236 M:1531789312  NOTICE: Additional mode: 720x576 @ 59.94 - Full Screen
  30. 00:04:52 T:2236 M:1531858944  NOTICE: Additional mode: 720x576 @ 60.00 - Full Screen
  31. 00:04:52 T:2236 M:1531928576  NOTICE: Additional mode: 720x576 @ 59.94 - Full Screen
  32. 00:04:52 T:2236 M:1531998208  NOTICE: Additional mode: 720x576 @ 60.00 - Full Screen
  33. 00:04:52 T:2236 M:1532067840  NOTICE: Additional mode: 720x576 @ 59.94 - Full Screen
  34. 00:04:52 T:2236 M:1532137472  NOTICE: Additional mode: 720x576 @ 60.00 - Full Screen
  35. 00:04:52 T:2236 M:1532157952  NOTICE: Additional mode: 800x600 @ 59.94 - Full Screen
  36. 00:04:52 T:2236 M:1532227584  NOTICE: Additional mode: 800x600 @ 60.00 - Full Screen
  37. 00:04:52 T:2236 M:1532297216  NOTICE: Additional mode: 800x600 @ 59.94 - Full Screen
  38. 00:04:52 T:2236 M:1532366848  NOTICE: Additional mode: 800x600 @ 60.00 - Full Screen
  39. 00:04:52 T:2236 M:1532387328  NOTICE: Additional mode: 800x600 @ 59.94 - Full Screen
  40. 00:04:52 T:2236 M:1532456960  NOTICE: Additional mode: 800x600 @ 60.00 - Full Screen
  41. 00:04:52 T:2236 M:1532526592  NOTICE: Additional mode: 1024x768 @ 59.94 - Full Screen
  42. 00:04:52 T:2236 M:1532596224  NOTICE: Additional mode: 1024x768 @ 60.00 - Full Screen
  43. 00:04:52 T:2236 M:1532616704  NOTICE: Additional mode: 1024x768 @ 59.94 - Full Screen
  44. 00:04:52 T:2236 M:1532686336  NOTICE: Additional mode: 1024x768 @ 60.00 - Full Screen
  45. 00:04:52 T:2236 M:1532755968  NOTICE: Additional mode: 1024x768 @ 59.94 - Full Screen
  46. 00:04:52 T:2236 M:1532825600  NOTICE: Additional mode: 1024x768 @ 60.00 - Full Screen
  47. 00:04:52 T:2236 M:1532846080  NOTICE: Additional mode: 1152x864 @ 59.94 - Full Screen
  48. 00:04:52 T:2236 M:1532915712  NOTICE: Additional mode: 1152x864 @ 60.00 - Full Screen
  49. 00:04:52 T:2236 M:1532985344  NOTICE: Additional mode: 1152x864 @ 59.94 - Full Screen
  50. 00:04:52 T:2236 M:1532907520  NOTICE: Additional mode: 1152x864 @ 60.00 - Full Screen
  51. 00:04:52 T:2236 M:1532977152  NOTICE: Additional mode: 1152x864 @ 59.94 - Full Screen
  52. 00:04:52 T:2236 M:1532997632  NOTICE: Additional mode: 1152x864 @ 60.00 - Full Screen
  53. 00:04:52 T:2236 M:1533067264  NOTICE: Additional mode: 1280x720 @ 59.94 - Full Screen
  54. 00:04:52 T:2236 M:1532887040  NOTICE: Additional mode: 1280x720 @ 60.00 - Full Screen
  55. 00:04:52 T:2236 M:1532903424  NOTICE: Additional mode: 1280x720 @ 59.94 - Full Screen
  56. 00:04:52 T:2236 M:1532874752  NOTICE: Additional mode: 1280x720 @ 60.00 - Full Screen
  57. 00:04:52 T:2236 M:1532870656  NOTICE: Additional mode: 1280x720 @ 59.94 - Full Screen
  58. 00:04:52 T:2236 M:1532788736  NOTICE: Additional mode: 1280x720 @ 60.00 - Full Screen
  59. 00:04:52 T:2236 M:1532858368  NOTICE: Additional mode: 1280x768 @ 59.94 - Full Screen
  60. 00:04:52 T:2236 M:1532878848  NOTICE: Additional mode: 1280x768 @ 60.00 - Full Screen
  61. 00:04:52 T:2236 M:1532702720  NOTICE: Additional mode: 1280x768 @ 59.94 - Full Screen
  62. 00:04:52 T:2236 M:1532624896  NOTICE: Additional mode: 1280x768 @ 60.00 - Full Screen
  63. 00:04:52 T:2236 M:1532301312  NOTICE: Additional mode: 1280x768 @ 59.94 - Full Screen
  64. 00:04:52 T:2236 M:1532026880  NOTICE: Additional mode: 1280x768 @ 60.00 - Full Screen
  65. 00:04:52 T:2236 M:1531949056  NOTICE: Additional mode: 1280x800 @ 59.94 - Full Screen
  66. 00:04:52 T:2236 M:1531871232  NOTICE: Additional mode: 1280x800 @ 60.00 - Full Screen
  67. 00:04:52 T:2236 M:1531793408  NOTICE: Additional mode: 1280x800 @ 59.94 - Full Screen
  68. 00:04:52 T:2236 M:1531666432  NOTICE: Additional mode: 1280x800 @ 60.00 - Full Screen
  69. 00:04:52 T:2236 M:1531686912  NOTICE: Additional mode: 1280x800 @ 59.94 - Full Screen
  70. 00:04:52 T:2236 M:1531609088  NOTICE: Additional mode: 1280x800 @ 60.00 - Full Screen
  71. 00:04:52 T:2236 M:1531580416  NOTICE: Additional mode: 1280x960 @ 59.94 - Full Screen
  72. 00:04:52 T:2236 M:1531650048  NOTICE: Additional mode: 1280x960 @ 60.00 - Full Screen
  73. 00:04:52 T:2236 M:1531719680  NOTICE: Additional mode: 1280x960 @ 59.94 - Full Screen
  74. 00:04:52 T:2236 M:1531740160  NOTICE: Additional mode: 1280x960 @ 60.00 - Full Screen
  75. 00:04:52 T:2236 M:1531809792  NOTICE: Additional mode: 1280x960 @ 59.94 - Full Screen
  76. 00:04:52 T:2236 M:1531879424  NOTICE: Additional mode: 1280x960 @ 60.00 - Full Screen
  77. 00:04:52 T:2236 M:1531949056  NOTICE: Additional mode: 1280x1024 @ 59.94 - Full Screen
  78. 00:04:52 T:2236 M:1532018688  NOTICE: Additional mode: 1280x1024 @ 60.00 - Full Screen
  79. 00:04:52 T:2236 M:1532088320  NOTICE: Additional mode: 1280x1024 @ 59.94 - Full Screen
  80. 00:04:52 T:2236 M:1532108800  NOTICE: Additional mode: 1280x1024 @ 60.00 - Full Screen
  81. 00:04:52 T:2236 M:1532178432  NOTICE: Additional mode: 1280x1024 @ 59.94 - Full Screen
  82. 00:04:52 T:2236 M:1532248064  NOTICE: Additional mode: 1280x1024 @ 60.00 - Full Screen
  83. 00:04:52 T:2236 M:1532317696  NOTICE: Additional mode: 1360x768 @ 59.94 - Full Screen
  84. 00:04:52 T:2236 M:1532338176  NOTICE: Additional mode: 1360x768 @ 60.00 - Full Screen
  85. 00:04:52 T:2236 M:1532407808  NOTICE: Additional mode: 1360x768 @ 59.94 - Full Screen
  86. 00:04:52 T:2236 M:1532477440  NOTICE: Additional mode: 1360x768 @ 60.00 - Full Screen
  87. 00:04:52 T:2236 M:1532547072  NOTICE: Additional mode: 1360x768 @ 59.94 - Full Screen
  88. 00:04:52 T:2236 M:1532518400  NOTICE: Additional mode: 1360x768 @ 60.00 - Full Screen
  89. 00:04:52 T:2236 M:1532588032  NOTICE: Additional mode: 1600x900 @ 59.94 - Full Screen
  90. 00:04:52 T:2236 M:1532657664  NOTICE: Additional mode: 1600x900 @ 60.00 - Full Screen
  91. 00:04:52 T:2236 M:1532727296  NOTICE: Additional mode: 1600x900 @ 59.94 - Full Screen
  92. 00:04:52 T:2236 M:1532796928  NOTICE: Additional mode: 1600x900 @ 60.00 - Full Screen
  93. 00:04:52 T:2236 M:1532866560  NOTICE: Additional mode: 1600x900 @ 59.94 - Full Screen
  94. 00:04:52 T:2236 M:1532936192  NOTICE: Additional mode: 1600x900 @ 60.00 - Full Screen
  95. 00:04:52 T:2236 M:1532858368  NOTICE: Additional mode: 1600x1024 @ 59.94 - Full Screen
  96. 00:04:52 T:2236 M:1532780544  NOTICE: Additional mode: 1600x1024 @ 60.00 - Full Screen
  97. 00:04:52 T:2236 M:1532801024  NOTICE: Additional mode: 1600x1024 @ 59.94 - Full Screen
  98. 00:04:52 T:2236 M:1532870656  NOTICE: Additional mode: 1600x1024 @ 60.00 - Full Screen
  99. 00:04:52 T:2236 M:1532891136  NOTICE: Additional mode: 1600x1024 @ 59.94 - Full Screen
  100. 00:04:52 T:2236 M:1532862464  NOTICE: Additional mode: 1600x1024 @ 60.00 - Full Screen
  101. 00:04:52 T:2236 M:1532833792  NOTICE: Additional mode: 1600x1200 @ 59.94 - Full Screen
  102. 00:04:52 T:2236 M:1532854272  NOTICE: Additional mode: 1600x1200 @ 60.00 - Full Screen
  103. 00:04:52 T:2236 M:1532825600  NOTICE: Additional mode: 1600x1200 @ 59.94 - Full Screen
  104. 00:04:52 T:2236 M:1532846080  NOTICE: Additional mode: 1600x1200 @ 60.00 - Full Screen
  105. 00:04:52 T:2236 M:1532866560  NOTICE: Additional mode: 1600x1200 @ 59.94 - Full Screen
  106. 00:04:52 T:2236 M:1532641280  NOTICE: Additional mode: 1600x1200 @ 60.00 - Full Screen
  107. 00:04:52 T:2236 M:1532604416  NOTICE: Additional mode: 1680x1050 @ 59.94 - Full Screen
  108. 00:04:52 T:2236 M:1532329984  NOTICE: Additional mode: 1680x1050 @ 60.00 - Full Screen
  109. 00:04:52 T:2236 M:1532006400  NOTICE: Additional mode: 1680x1050 @ 59.94 - Full Screen
  110. 00:04:52 T:2236 M:1531928576  NOTICE: Additional mode: 1680x1050 @ 60.00 - Full Screen
  111. 00:04:52 T:2236 M:1531899904  NOTICE: Additional mode: 1680x1050 @ 59.94 - Full Screen
  112. 00:04:52 T:2236 M:1531772928  NOTICE: Additional mode: 1680x1050 @ 60.00 - Full Screen
  113. 00:04:52 T:2236 M:1531645952  NOTICE: Additional mode: 1920x1080 @ 59.94 - Full Screen
  114. 00:04:52 T:2236 M:1531666432  NOTICE: Additional mode: 1920x1080 @ 60.00 - Full Screen
  115. 00:04:52 T:2236 M:1531588608  NOTICE: Additional mode: 1920x1080 @ 59.94 - Full Screen
  116. 00:04:52 T:2236 M:1531609088  NOTICE: Additional mode: 1920x1080 @ 60.00 - Full Screen
  117. 00:04:52 T:2236 M:1531629568  NOTICE: Additional mode: 1920x1080 @ 59.94 - Full Screen
  118. 00:04:52 T:2236 M:1531699200  NOTICE: Additional mode: 1920x1080 @ 60.00 - Full Screen
  119. 00:04:52 T:2236 M:1531760640  NOTICE: Additional mode: 1920x1200 @ 59.94 - Full Screen
  120. 00:04:52 T:2236 M:1531781120  NOTICE: Additional mode: 1920x1200 @ 60.00 - Full Screen
  121. 00:04:52 T:2236 M:1534525440  NOTICE: load settings...
  122. 00:04:52 T:2236 M:1533923328  NOTICE: special://profile/ is mapped to: special://masterprofile/
  123. 00:04:52 T:2236 M:1533923328  NOTICE: loading special://masterprofile/guisettings.xml
  124. 00:04:52 T:2236 M:1533317120  NOTICE: Getting hardware information now...
  125. 00:04:52 T:2236 M:1533317120  NOTICE: Checking resolution 12
  126. 00:04:52 T:2236 M:1533304832  NOTICE: Loading player core factory settings from special://xbmc/system/playercorefactory.xml.
  127. 00:04:52 T:2236 M:1533296640  NOTICE: Loaded playercorefactory configuration
  128. 00:04:52 T:2236 M:1533296640  NOTICE: Loading player core factory settings from special://masterprofile/playercorefactory.xml.
  129. 00:04:52 T:2236 M:1533296640  NOTICE: special://masterprofile/playercorefactory.xml does not exist. Skipping.
  130. 00:04:53 T:2236 M:1533292544  NOTICE: No advancedsettings.xml to load (special://masterprofile/advancedsettings.xml)
  131. 00:04:53 T:2236 M:1533292544  NOTICE: Default DVD Player: dvdplayer
  132. 00:04:53 T:2236 M:1533292544  NOTICE: Default Video Player: dvdplayer
  133. 00:04:53 T:2236 M:1533292544  NOTICE: Default Audio Player: paplayer
  134. 00:04:53 T:2236 M:1533394944  NOTICE: Loading media sources from special://masterprofile/sources.xml
  135. 00:04:53 T:2236 M:1532293120 WARNING: ADDON: cpluff: 'Not all directories were successfully scanned.'
  136. 00:04:53 T:2236 M:1526284288   ERROR: CRenderSystemDX::CreateDevice - adapter 0: nvd3dum.dll, NVIDIA GeForce 9800M GT, VendorId 4318, DeviceId 1547
  137. 00:04:53 T:2236 M:1516326912  NOTICE: initializing playlistplayer
  138. 00:04:53 T:2236 M:1516322816  NOTICE: DONE initializing playlistplayer
  139. 00:04:53 T:2236 M:1505071104  NOTICE: initialize done
  140. 00:04:53 T:2236 M:1505071104  NOTICE: Running the application...
  141. 00:04:53 T:2236 M:1505046528  NOTICE: ES: Starting event server
  142. 00:04:53 T:4408 M:1505038336  NOTICE: ES: Starting UDP Event server on 127.0.0.1:9777
  143. 00:04:53 T:4408 M:1505009664  NOTICE: UDP: Listening on port 9777
  144. 00:05:04 T:5404 M:1498230784  NOTICE: VideoInfoScanner: Starting scan ..
  145. 00:05:04 T:5404 M:1498243072  NOTICE: VideoInfoScanner: Finished scan. Scanning for video info took 00:00
  146. 00:05:14 T:2236 M:1496797184   ERROR: ADDON::CScraper::Run: Unable to parse web site
  147. 00:05:22 T:4148 M:1496580096   ERROR: Texture manager unable to load file: special://masterprofile/Thumbnails/Video/Fanart/1a0f1dbc.tbn
  148. 00:05:22 T:5480 M:1496535040   ERROR: Texture manager unable to load file: special://masterprofile/Thumbnails/Video/1/1a0f1dbc.tbn
  149. 00:05:22 T:2236 M:1496764416   ERROR: ADDON::CScraper::Run: Unable to parse web site
  150. 00:05:37 T:2236 M:1493504000 WARNING: XFILE::CVideoDatabaseDirectory::GetLabel - Unknown nodetype requested 11
  151. 00:05:58 T:2236 M:1499049984   ERROR: ADDON::CScraper::Run: Unable to parse web site
  152. 00:06:07 T:4148 M:1496186880   ERROR: Texture manager unable to load file: special://masterprofile/Thumbnails/Video/Fanart/1a0f1dbc.tbn
  153. 00:06:07 T:5480 M:1496141824   ERROR: Texture manager unable to load file: special://masterprofile/Thumbnails/Video/1/1a0f1dbc.tbn
  154. 00:06:11 T:2236 M:1499287552   ERROR: ADDON::CScraper::Run: Unable to parse web site
  155. 00:06:11 T:2236 M:1498804224   ERROR: ADDON::CScraper::Run: Unable to parse web site
  156. 00:06:12 T:2236 M:1498566656   ERROR: ADDON::CScraper::Run: Unable to parse web site
  157. 00:06:12 T:2236 M:1499480064   ERROR: ADDON::CScraper::Run: Unable to parse web site
  158. 00:06:12 T:2236 M:1499504640   ERROR: ADDON::CScraper::Run: Unable to parse web site
  159. 00:06:12 T:2236 M:1498820608   ERROR: ADDON::CScraper::Run: Unable to parse web site
  160. 00:06:12 T:2236 M:1498599424   ERROR: ADDON::CScraper::Run: Unable to parse web site
  161. 00:06:13 T:2236 M:1498615808   ERROR: ADDON::CScraper::Run: Unable to parse web site
  162. 00:06:13 T:2236 M:1498644480   ERROR: ADDON::CScraper::Run: Unable to parse web site
  163. 00:06:13 T:2236 M:1498677248   ERROR: ADDON::CScraper::Run: Unable to parse web site
  164. 00:06:13 T:2236 M:1497931776   ERROR: ADDON::CScraper::Run: Unable to parse web site
  165. 00:06:13 T:2236 M:1497968640   ERROR: ADDON::CScraper::Run: Unable to parse web site
  166. 00:06:14 T:2236 M:1497403392   ERROR: ADDON::CScraper::Run: Unable to parse web site
  167. 00:06:14 T:2236 M:1498034176   ERROR: ADDON::CScraper::Run: Unable to parse web site
  168. 00:06:14 T:2236 M:1498230784   ERROR: ADDON::CScraper::Run: Unable to parse web site
  169. 00:06:14 T:2236 M:1498009600   ERROR: ADDON::CScraper::Run: Unable to parse web site
  170. 00:06:15 T:2236 M:1498038272   ERROR: ADDON::CScraper::Run: Unable to parse web site
  171. 00:06:15 T:2236 M:1498062848   ERROR: ADDON::CScraper::Run: Unable to parse web site
  172. 00:06:15 T:2236 M:1497821184   ERROR: ADDON::CScraper::Run: Unable to parse web site
  173. 00:06:15 T:2236 M:1497288704   ERROR: ADDON::CScraper::Run: Unable to parse web site
  174. 00:06:16 T:2236 M:1497333760   ERROR: ADDON::CScraper::Run: Unable to parse web site
  175. 00:06:16 T:2236 M:1497894912   ERROR: ADDON::CScraper::Run: Unable to parse web site
  176. 00:06:16 T:2236 M:1497911296   ERROR: ADDON::CScraper::Run: Unable to parse web site
  177. 00:06:16 T:2236 M:1498099712   ERROR: ADDON::CScraper::Run: Unable to parse web site
  178. 00:06:16 T:2236 M:1497346048   ERROR: ADDON::CScraper::Run: Unable to parse web site
  179. 00:06:17 T:2236 M:1497456640   ERROR: ADDON::CScraper::Run: Unable to parse web site
  180. 00:06:17 T:2236 M:1497481216   ERROR: ADDON::CScraper::Run: Unable to parse web site
  181. 00:06:17 T:2236 M:1497669632   ERROR: ADDON::CScraper::Run: Unable to parse web site
  182. 00:06:17 T:2236 M:1497198592   ERROR: ADDON::CScraper::Run: Unable to parse web site
  183. 00:06:18 T:2236 M:1497223168   ERROR: ADDON::CScraper::Run: Unable to parse web site
  184. 00:06:18 T:2236 M:1497767936   ERROR: ADDON::CScraper::Run: Unable to parse web site
  185. 00:06:18 T:2236 M:1497759744   ERROR: ADDON::CScraper::Run: Unable to parse web site
  186. 00:06:18 T:2236 M:1497038848   ERROR: ADDON::CScraper::Run: Unable to parse web site
  187. 00:06:18 T:2236 M:1497047040   ERROR: ADDON::CScraper::Run: Unable to parse web site
  188. 00:06:19 T:2236 M:1496788992   ERROR: ADDON::CScraper::Run: Unable to parse web site
  189. 00:06:19 T:2236 M:1496829952   ERROR: ADDON::CScraper::Run: Unable to parse web site
  190. 00:06:19 T:2236 M:1496731648   ERROR: ADDON::CScraper::Run: Unable to parse web site
  191. 00:06:20 T:2236 M:1496780800   ERROR: ADDON::CScraper::Run: Unable to parse web site
  192. 00:06:20 T:2236 M:1497317376   ERROR: ADDON::CScraper::Run: Unable to parse web site
  193. 00:06:20 T:2236 M:1497358336   ERROR: ADDON::CScraper::Run: Unable to parse web site
  194. 00:06:20 T:2236 M:1497284608   ERROR: ADDON::CScraper::Run: Unable to parse web site
  195. 00:06:21 T:2236 M:1497288704   ERROR: ADDON::CScraper::Run: Unable to parse web site
  196. 00:06:21 T:2236 M:1497313280   ERROR: ADDON::CScraper::Run: Unable to parse web site
  197. 00:06:21 T:2236 M:1497366528   ERROR: ADDON::CScraper::Run: Unable to parse web site
  198. 00:06:21 T:2236 M:1496707072   ERROR: ADDON::CScraper::Run: Unable to parse web site
  199. 00:06:22 T:2236 M:1496715264   ERROR: ADDON::CScraper::Run: Unable to parse web site
  200. 00:06:22 T:2236 M:1497317376   ERROR: ADDON::CScraper::Run: Unable to parse web site
  201. 00:06:22 T:2236 M:1497292800   ERROR: ADDON::CScraper::Run: Unable to parse web site
  202. 00:06:22 T:2236 M:1497411584   ERROR: ADDON::CScraper::Run: Unable to parse web site
  203. 00:06:22 T:2236 M:1497202688   ERROR: ADDON::CScraper::Run: Unable to parse web site
  204. 00:06:23 T:2236 M:1497231360   ERROR: ADDON::CScraper::Run: Unable to parse web site
  205. 00:06:23 T:2236 M:1497251840   ERROR: ADDON::CScraper::Run: Unable to parse web site
  206. 00:06:23 T:2236 M:1497722880   ERROR: ADDON::CScraper::Run: Unable to parse web site
  207. 00:06:24 T:2236 M:1496547328   ERROR: ADDON::CScraper::Run: Unable to parse web site
  208. 00:06:24 T:2236 M:1496576000   ERROR: ADDON::CScraper::Run: Unable to parse web site
  209. 00:06:24 T:2236 M:1496633344   ERROR: ADDON::CScraper::Run: Unable to parse web site
  210. 00:06:24 T:2236 M:1497739264   ERROR: ADDON::CScraper::Run: Unable to parse web site
  211. 00:06:24 T:2236 M:1497157632   ERROR: ADDON::CScraper::Run: Unable to parse web site
  212. 00:06:25 T:2236 M:1497243648   ERROR: ADDON::CScraper::Run: Unable to parse web site
  213. 00:06:25 T:2236 M:1497231360   ERROR: ADDON::CScraper::Run: Unable to parse web site
  214. 00:06:25 T:2236 M:1497255936   ERROR: ADDON::CScraper::Run: Unable to parse web site
  215. 00:06:25 T:2236 M:1496825856   ERROR: ADDON::CScraper::Run: Unable to parse web site
  216. 00:06:26 T:2236 M:1496821760   ERROR: ADDON::CScraper::Run: Unable to parse web site
  217. 00:06:26 T:2236 M:1497346048   ERROR: ADDON::CScraper::Run: Unable to parse web site
  218. 00:06:26 T:2236 M:1497362432   ERROR: ADDON::CScraper::Run: Unable to parse web site
  219. 00:06:26 T:2236 M:1496928256   ERROR: ADDON::CScraper::Run: Unable to parse web site
  220. 00:06:27 T:2236 M:1496940544   ERROR: ADDON::CScraper::Run: Unable to parse web site
  221. 00:06:27 T:2236 M:1496559616   ERROR: ADDON::CScraper::Run: Unable to parse web site
  222. 00:06:27 T:2236 M:1496588288   ERROR: ADDON::CScraper::Run: Unable to parse web site
  223. 00:06:27 T:2236 M:1496305664   ERROR: ADDON::CScraper::Run: Unable to parse web site
  224. 00:06:28 T:2236 M:1495900160   ERROR: ADDON::CScraper::Run: Unable to parse web site
  225. 00:06:28 T:2236 M:1496444928   ERROR: ADDON::CScraper::Run: Unable to parse web site
  226. 00:06:28 T:2236 M:1496498176   ERROR: ADDON::CScraper::Run: Unable to parse web site
  227. 00:06:28 T:2236 M:1496875008   ERROR: ADDON::CScraper::Run: Unable to parse web site
  228. 00:06:29 T:2236 M:1496895488   ERROR: ADDON::CScraper::Run: Unable to parse web site
  229. 00:06:29 T:2236 M:1495957504   ERROR: ADDON::CScraper::Run: Unable to parse web site
  230. 00:06:29 T:2236 M:1495969792   ERROR: ADDON::CScraper::Run: Unable to parse web site
  231. 00:06:29 T:2236 M:1498808320   ERROR: ADDON::CScraper::Run: Unable to parse web site
  232. 00:06:30 T:2236 M:1497542656   ERROR: ADDON::CScraper::Run: Unable to parse web site
  233. 00:06:30 T:2236 M:1498128384   ERROR: ADDON::CScraper::Run: Unable to parse web site
  234. 00:06:30 T:2236 M:1498152960   ERROR: ADDON::CScraper::Run: Unable to parse web site
  235. 00:06:30 T:2236 M:1497346048   ERROR: ADDON::CScraper::Run: Unable to parse web site
  236. 00:06:31 T:2236 M:1497251840   ERROR: ADDON::CScraper::Run: Unable to parse web site
  237. 00:06:31 T:2236 M:1497227264   ERROR: ADDON::CScraper::Run: Unable to parse web site
  238. 00:06:31 T:2236 M:1497251840   ERROR: ADDON::CScraper::Run: Unable to parse web site
  239. 00:06:31 T:2236 M:1497100288   ERROR: ADDON::CScraper::Run: Unable to parse web site
  240. 00:06:32 T:2236 M:1496813568   ERROR: ADDON::CScraper::Run: Unable to parse web site
  241. 00:06:32 T:2236 M:1497202688   ERROR: ADDON::CScraper::Run: Unable to parse web site
  242. 00:06:32 T:2236 M:1497108480   ERROR: ADDON::CScraper::Run: Unable to parse web site
  243. 00:06:32 T:2236 M:1497681920   ERROR: ADDON::CScraper::Run: Unable to parse web site
  244. 00:06:33 T:2236 M:1497612288   ERROR: ADDON::CScraper::Run: Unable to parse web site
  245. 00:06:33 T:2236 M:1497038848   ERROR: ADDON::CScraper::Run: Unable to parse web site
  246. 00:06:33 T:2236 M:1497051136   ERROR: ADDON::CScraper::Run: Unable to parse web site
  247. 00:06:34 T:2236 M:1496518656   ERROR: ADDON::CScraper::Run: Unable to parse web site
  248. 00:06:34 T:2236 M:1496698880   ERROR: ADDON::CScraper::Run: Unable to parse web site
  249. 00:06:34 T:2236 M:1496723456   ERROR: ADDON::CScraper::Run: Unable to parse web site
  250. 00:06:34 T:2236 M:1497190400   ERROR: ADDON::CScraper::Run: Unable to parse web site
  251. 00:06:35 T:2236 M:1497210880   ERROR: ADDON::CScraper::Run: Unable to parse web site
  252. 00:06:35 T:2236 M:1497227264   ERROR: ADDON::CScraper::Run: Unable to parse web site
  253. 00:06:35 T:2236 M:1497219072   ERROR: ADDON::CScraper::Run: Unable to parse web site
  254. 00:06:36 T:2236 M:1496162304   ERROR: ADDON::CScraper::Run: Unable to parse web site
  255. 00:06:36 T:2236 M:1496698880   ERROR: ADDON::CScraper::Run: Unable to parse web site
  256. 00:06:36 T:2236 M:1496723456   ERROR: ADDON::CScraper::Run: Unable to parse web site
  257. 00:06:36 T:2236 M:1497366528   ERROR: ADDON::CScraper::Run: Unable to parse web site
  258. 00:06:37 T:2236 M:1496694784   ERROR: ADDON::CScraper::Run: Unable to parse web site
  259. 00:06:37 T:2236 M:1496530944   ERROR: ADDON::CScraper::Run: Unable to parse web site
  260. 00:06:37 T:2236 M:1496432640   ERROR: ADDON::CScraper::Run: Unable to parse web site
  261. 00:06:37 T:2236 M:1497190400   ERROR: ADDON::CScraper::Run: Unable to parse web site
  262. 00:06:38 T:2236 M:1496997888   ERROR: ADDON::CScraper::Run: Unable to parse web site
  263. 00:06:38 T:2236 M:1496944640   ERROR: ADDON::CScraper::Run: Unable to parse web site
  264. 00:06:38 T:2236 M:1496989696   ERROR: ADDON::CScraper::Run: Unable to parse web site
  265. 00:06:39 T:2236 M:1496821760   ERROR: ADDON::CScraper::Run: Unable to parse web site
  266. 00:06:39 T:2236 M:1496092672   ERROR: ADDON::CScraper::Run: Unable to parse web site
  267. 00:06:39 T:2236 M:1496166400   ERROR: ADDON::CScraper::Run: Unable to parse web site
  268. 00:06:39 T:2236 M:1497260032   ERROR: ADDON::CScraper::Run: Unable to parse web site
  269. 00:06:40 T:2236 M:1495699456   ERROR: ADDON::CScraper::Run: Unable to parse web site
  270. 00:06:40 T:2236 M:1496289280   ERROR: ADDON::CScraper::Run: Unable to parse web site
  271. 00:06:41 T:2236 M:1497169920   ERROR: ADDON::CScraper::Run: Unable to parse web site
  272. 00:06:43 T:2236 M:1496313856   ERROR: ADDON::CScraper::Run: Unable to parse web site
  273. 00:06:44 T:2236 M:1496145920   ERROR: ADDON::CScraper::Run: Unable to parse web site
  274. 00:06:46 T:2236 M:1495834624   ERROR: ADDON::CScraper::Run: Unable to parse web site
  275. 00:06:47 T:2236 M:1496371200   ERROR: ADDON::CScraper::Run: Unable to parse web site
  276. 00:06:49 T:2236 M:1496563712   ERROR: ADDON::CScraper::Run: Unable to parse web site
  277. 00:06:50 T:2236 M:1496453120   ERROR: ADDON::CScraper::Run: Unable to parse web site
  278. 00:06:52 T:2236 M:1497153536   ERROR: ADDON::CScraper::Run: Unable to parse web site
  279. 00:06:53 T:2236 M:1496096768   ERROR: ADDON::CScraper::Run: Unable to parse web site
  280. 00:06:55 T:2236 M:1496035328   ERROR: ADDON::CScraper::Run: Unable to parse web site
  281. 00:06:56 T:2236 M:1496051712   ERROR: ADDON::CScraper::Run: Unable to parse web site
  282. 00:06:58 T:2236 M:1496137728   ERROR: ADDON::CScraper::Run: Unable to parse web site
  283. 00:06:59 T:2236 M:1496023040   ERROR: ADDON::CScraper::Run: Unable to parse web site
  284. 00:07:01 T:2236 M:1496248320   ERROR: ADDON::CScraper::Run: Unable to parse web site
  285. 00:07:02 T:2236 M:1496129536   ERROR: ADDON::CScraper::Run: Unable to parse web site
  286. 00:07:04 T:2236 M:1495719936   ERROR: ADDON::CScraper::Run: Unable to parse web site
  287. 00:07:05 T:2236 M:1496203264   ERROR: ADDON::CScraper::Run: Unable to parse web site
  288. 00:07:07 T:2236 M:1496215552   ERROR: ADDON::CScraper::Run: Unable to parse web site
  289. 00:07:08 T:2236 M:1496223744   ERROR: ADDON::CScraper::Run: Unable to parse web site
  290. 00:07:10 T:2236 M:1496776704   ERROR: ADDON::CScraper::Run: Unable to parse web site
  291. 00:07:11 T:2236 M:1496137728   ERROR: ADDON::CScraper::Run: Unable to parse web site
  292. 00:07:12 T:2236 M:1496158208   ERROR: ADDON::CScraper::Run: Unable to parse web site
  293. 00:07:14 T:2236 M:1496342528   ERROR: ADDON::CScraper::Run: Unable to parse web site
  294. 00:07:15 T:2236 M:1496166400   ERROR: ADDON::CScraper::Run: Unable to parse web site
  295. 00:07:17 T:2236 M:1496203264   ERROR: ADDON::CScraper::Run: Unable to parse web site
  296. 00:07:18 T:2236 M:1496252416   ERROR: ADDON::CScraper::Run: Unable to parse web site
  297. 00:07:20 T:2236 M:1495969792   ERROR: ADDON::CScraper::Run: Unable to parse web site
  298. 00:07:21 T:2236 M:1495699456   ERROR: ADDON::CScraper::Run: Unable to parse web site
  299. 00:07:23 T:2236 M:1495687168   ERROR: ADDON::CScraper::Run: Unable to parse web site
  300. 00:07:24 T:2236 M:1495515136   ERROR: ADDON::CScraper::Run: Unable to parse web site
  301. 00:07:26 T:2236 M:1495531520   ERROR: ADDON::CScraper::Run: Unable to parse web site
  302. 00:07:27 T:2236 M:1495416832   ERROR: ADDON::CScraper::Run: Unable to parse web site
  303. 00:07:29 T:2236 M:1495166976   ERROR: ADDON::CScraper::Run: Unable to parse web site
  304. 00:07:30 T:2236 M:1495814144   ERROR: ADDON::CScraper::Run: Unable to parse web site
  305. 00:07:32 T:2236 M:1495576576   ERROR: ADDON::CScraper::Run: Unable to parse web site
  306. 00:07:33 T:2236 M:1496920064   ERROR: ADDON::CScraper::Run: Unable to parse web site
  307. 00:07:35 T:2236 M:1495474176   ERROR: ADDON::CScraper::Run: Unable to parse web site
  308. 00:07:36 T:2236 M:1495625728   ERROR: ADDON::CScraper::Run: Unable to parse web site
  309. 00:07:38 T:2236 M:1495650304   ERROR: ADDON::CScraper::Run: Unable to parse web site
  310. 00:07:39 T:2236 M:1495724032   ERROR: ADDON::CScraper::Run: Unable to parse web site
  311. 00:07:40 T:2236 M:1494888448   ERROR: ADDON::CScraper::Run: Unable to parse web site
  312. 00:07:42 T:2236 M:1498836992   ERROR: ADDON::CScraper::Run: Unable to parse web site
  313. 00:07:44 T:2236 M:1492901888   ERROR: ADDON::CScraper::Run: Unable to parse web site
  314. 00:07:45 T:2236 M:1493229568   ERROR: ADDON::CScraper::Run: Unable to parse web site
  315. 00:07:47 T:2236 M:1491996672   ERROR: ADDON::CScraper::Run: Unable to parse web site
  316. 00:07:48 T:2236 M:1491722240   ERROR: ADDON::CScraper::Run: Unable to parse web site
  317. 00:07:50 T:2236 M:1492750336   ERROR: ADDON::CScraper::Run: Unable to parse web site
  318. 00:07:51 T:2236 M:1491599360   ERROR: ADDON::CScraper::Run: Unable to parse web site
  319. 00:07:53 T:2236 M:1491546112   ERROR: ADDON::CScraper::Run: Unable to parse web site
  320. 00:07:54 T:2236 M:1491501056   ERROR: ADDON::CScraper::Run: Unable to parse web site
  321. 00:07:55 T:2236 M:1491574784   ERROR: ADDON::CScraper::Run: Unable to parse web site
  322. 00:07:57 T:2236 M:1491918848   ERROR: ADDON::CScraper::Run: Unable to parse web site
  323. 00:07:58 T:2236 M:1497841664   ERROR: ADDON::CScraper::Run: Unable to parse web site
  324. 00:08:00 T:2236 M:1498533888   ERROR: ADDON::CScraper::Run: Unable to parse web site
  325. 00:08:01 T:2236 M:1498718208   ERROR: ADDON::CScraper::Run: Unable to parse web site
  326. 00:08:03 T:2236 M:1497980928   ERROR: ADDON::CScraper::Run: Unable to parse web site
  327. 00:08:04 T:2236 M:1498505216   ERROR: ADDON::CScraper::Run: Unable to parse web site
  328. 00:08:06 T:2236 M:1499140096   ERROR: ADDON::CScraper::Run: Unable to parse web site
  329. 00:08:07 T:2236 M:1499242496   ERROR: ADDON::CScraper::Run: Unable to parse web site
  330. 00:08:09 T:2236 M:1498853376   ERROR: ADDON::CScraper::Run: Unable to parse web site
  331. 00:08:10 T:2236 M:1499017216   ERROR: ADDON::CScraper::Run: Unable to parse web site
  332. 00:08:11 T:2236 M:1499254784   ERROR: ADDON::CScraper::Run: Unable to parse web site
  333. 00:08:13 T:2236 M:1489915904   ERROR: ADDON::CScraper::Run: Unable to parse web site
  334. 00:08:14 T:2236 M:1489313792   ERROR: ADDON::CScraper::Run: Unable to parse web site
  335. 00:08:16 T:2236 M:1491271680   ERROR: ADDON::CScraper::Run: Unable to parse web site
  336. 00:08:17 T:2236 M:1490436096   ERROR: ADDON::CScraper::Run: Unable to parse web site
  337. 00:08:19 T:2236 M:1490272256   ERROR: ADDON::CScraper::Run: Unable to parse web site
  338. 00:08:20 T:2236 M:1489682432   ERROR: ADDON::CScraper::Run: Unable to parse web site
  339. 00:08:22 T:2236 M:1490153472   ERROR: ADDON::CScraper::Run: Unable to parse web site
  340. 00:08:23 T:2236 M:1489637376   ERROR: ADDON::CScraper::Run: Unable to parse web site
  341. 00:08:24 T:2236 M:1489588224   ERROR: ADDON::CScraper::Run: Unable to parse web site
  342. 00:08:26 T:2236 M:1490685952   ERROR: ADDON::CScraper::Run: Unable to parse web site
  343. 00:08:27 T:2236 M:1489649664   ERROR: ADDON::CScraper::Run: Unable to parse web site
  344. 00:08:29 T:2236 M:1489727488   ERROR: ADDON::CScraper::Run: Unable to parse web site
  345. 00:08:30 T:2236 M:1490173952   ERROR: ADDON::CScraper::Run: Unable to parse web site
  346. 00:08:40 T:2236 M:1491546112 WARNING: XFILE::CVideoDatabaseDirectory::GetLabel - Unknown nodetype requested 11
  347. 00:08:48 T:2236 M:1486286848 WARNING: XFILE::CVideoDatabaseDirectory::GetLabel - Unknown nodetype requested 12
  348. 00:08:51 T:2236 M:1488883712 WARNING: XFILE::CVideoDatabaseDirectory::GetLabel - Unknown nodetype requested 11
  349. 00:09:36 T:2236 M:1489313792 WARNING: Failed to find previously selected audio sink
  350. 00:09:38 T:2236 M:1492770816  NOTICE: Enabled debug logging due to GUI setting. Level 2.
  351. 00:09:40 T:2236 M:1492094976   DEBUG: SDLKeyboard: scancode: 80, sym: 274, unicode: 0, modifier: 0
  352. 00:09:40 T:2236 M:1492094976   DEBUG: CApplication::OnKey: 61480 pressed, action is Down
  353. 00:09:42 T:2236 M:1492262912   DEBUG: SDLKeyboard: scancode: 28, sym: 13, unicode: 13, modifier: 0
  354. 00:09:42 T:2236 M:1492262912   DEBUG: CApplication::OnKey: 61453 pressed, action is Select
  355. 00:09:42 T:2236 M:1492226048    INFO: Loading skin file: FileBrowser.xml
  356. 00:09:42 T:2236 M:1492213760   DEBUG: Load FileBrowser.xml: 8.68ms
  357. 00:09:42 T:2236 M:1492209664   DEBUG: ------ Window Init (FileBrowser.xml) ------
  358. 00:09:42 T:2236 M:1492193280   DEBUG: Alloc resources: 0.50ms (0.00 ms skin load)
  359. 00:09:46 T:2236 M:1488769024   DEBUG: SDLKeyboard: scancode: 28, sym: 13, unicode: 13, modifier: 0
  360. 00:09:46 T:2236 M:1488769024   DEBUG: CApplication::OnKey: 61453 pressed, action is Select
  361. 00:09:46 T:4124 M:1488756736   DEBUG: CGetDirectory::DoWork retrieving C:\
  362. 00:09:46 T:4124 M:1488756736   DEBUG: CGetDirectory::DoWork retrieving C:\ succeeded
  363. 00:09:46 T:4124 M:1488756736   DEBUG: CGetDirectory::OnJobComplete called
  364. 00:09:47 T:2236 M:1490325504   DEBUG: SDLKeyboard: scancode: 77, sym: 275, unicode: 0, modifier: 0
  365. 00:09:47 T:2236 M:1490325504   DEBUG: CApplication::OnKey: 61479 pressed, action is Right
  366. 00:09:47 T:2236 M:1490599936   DEBUG: SDLKeyboard: scancode: 77, sym: 275, unicode: 0, modifier: 0
  367. 00:09:47 T:2236 M:1490599936   DEBUG: CApplication::OnKey: 61479 pressed, action is Right
  368. 00:09:48 T:2236 M:1491267584   DEBUG: SDLKeyboard: scancode: 72, sym: 273, unicode: 0, modifier: 0
  369. 00:09:48 T:2236 M:1491267584   DEBUG: CApplication::OnKey: 61478 pressed, action is Up
  370. 00:09:48 T:2236 M:1490350080   DEBUG: SDLKeyboard: scancode: 75, sym: 276, unicode: 0, modifier: 0
  371. 00:09:48 T:2236 M:1490350080   DEBUG: CApplication::OnKey: 61477 pressed, action is Left
  372. 00:09:49 T:2236 M:1489891328   DEBUG: SDLKeyboard: scancode: 28, sym: 13, unicode: 13, modifier: 0
  373. 00:09:49 T:2236 M:1489891328   DEBUG: CApplication::OnKey: 61453 pressed, action is Select
  374. 00:09:49 T:2236 M:1489887232   DEBUG: ------ Window Deinit (FileBrowser.xml) ------
  375. 00:09:50 T:2236 M:1491140608   DEBUG: SDLKeyboard: scancode: 75, sym: 276, unicode: 0, modifier: 0
  376. 00:09:50 T:2236 M:1491140608   DEBUG: CApplication::OnKey: 61477 pressed, action is Left
  377. 00:09:51 T:2236 M:1489670144   DEBUG: SDLKeyboard: scancode: 72, sym: 273, unicode: 0, modifier: 0
  378. 00:09:51 T:2236 M:1489670144   DEBUG: CApplication::OnKey: 61478 pressed, action is Up
  379. 00:09:52 T:2236 M:1489661952   DEBUG: SDLKeyboard: scancode: 72, sym: 273, unicode: 0, modifier: 0
  380. 00:09:52 T:2236 M:1489661952   DEBUG: CApplication::OnKey: 61478 pressed, action is Up
  381. 00:09:52 T:2236 M:1490083840   DEBUG: SDLKeyboard: scancode: 80, sym: 274, unicode: 0, modifier: 0
  382. 00:09:52 T:2236 M:1490083840   DEBUG: CApplication::OnKey: 61480 pressed, action is Down
  383. 00:09:52 T:2236 M:1490706432   DEBUG: SDLKeyboard: scancode: 72, sym: 273, unicode: 0, modifier: 0
  384. 00:09:52 T:2236 M:1490706432   DEBUG: CApplication::OnKey: 61478 pressed, action is Up
  385. 00:09:53 T:2236 M:1489731584   DEBUG: SDLKeyboard: scancode: 72, sym: 273, unicode: 0, modifier: 0
  386. 00:09:53 T:2236 M:1489731584   DEBUG: CApplication::OnKey: 61478 pressed, action is Up
  387. 00:09:53 T:2236 M:1489723392 WARNING: Failed to find previously selected audio sink
  388. 00:09:53 T:1196 M:1489428480   DEBUG: Thread 1196 terminating
  389. 00:09:54 T:2236 M:1489002496   DEBUG: SDLKeyboard: scancode: 72, sym: 273, unicode: 0, modifier: 0
  390. 00:09:54 T:2236 M:1488990208   DEBUG: CApplication::OnKey: 61478 pressed, action is Up
  391. 00:09:55 T:2236 M:1489899520   DEBUG: SDLKeyboard: scancode: 14, sym: 8, unicode: 8, modifier: 0
  392. 00:09:55 T:2236 M:1489899520   DEBUG: CApplication::OnKey: 61448 pressed, action is PreviousMenu
  393. 00:09:55 T:2236 M:1489891328   DEBUG: CGUIWindowManager::PreviousWindow: Deactivate
  394. 00:09:55 T:2236 M:1489915904   DEBUG: ------ Window Deinit (SettingsCategory.xml) ------
  395. 00:09:56 T:2236 M:1489891328   DEBUG: CGUIWindowManager::PreviousWindow: Activate new
  396. 00:09:56 T:2236 M:1489891328   DEBUG: ------ Window Init (Settings.xml) ------
  397. 00:09:56 T:2236 M:1489891328    INFO: Loading skin file: Settings.xml
  398. 00:09:56 T:2236 M:1489883136   DEBUG: Load Settings.xml: 6.13ms
  399. 00:09:56 T:2236 M:1489874944   DEBUG: Alloc resources: 6.40ms (6.18 ms skin load)
  400. 00:09:56 T:4124 M:1483313152   DEBUG: CImageLoader::DoWork - took 103 ms to load special://skin/backgrounds/system.jpg
  401. 00:09:56 T:2236 M:1482874880   DEBUG: SDLKeyboard: scancode: 14, sym: 8, unicode: 8, modifier: 0
  402. 00:09:56 T:2236 M:1482874880   DEBUG: CApplication::OnKey: 61448 pressed, action is PreviousMenu
  403. 00:09:56 T:2236 M:1482866688   DEBUG: CGUIWindowManager::PreviousWindow: Deactivate
  404. 00:09:56 T:2236 M:1482866688   DEBUG: ------ Window Deinit (Settings.xml) ------
  405. 00:09:57 T:2236 M:1489641472   DEBUG: CGUIWindowManager::PreviousWindow: Activate new
  406. 00:09:57 T:2236 M:1489641472   DEBUG: ------ Window Init (Home.xml) ------
  407. 00:09:57 T:2236 M:1489641472    INFO: Loading skin file: Home.xml
  408. 00:09:57 T:2236 M:1489600512   DEBUG: Load Home.xml: 26.10ms
  409. 00:09:57 T:2236 M:1489559552   DEBUG: Alloc resources: 27.86ms (26.16 ms skin load)
  410. 00:09:57 T:2236 M:1487134720   DEBUG: CApplication::ExecuteXBMCAction : Translating SetFocus(9000)
  411. 00:09:57 T:2236 M:1487134720   DEBUG: CApplication::ExecuteXBMCAction : To SetFocus(9000)
  412. 00:09:59 T:2236 M:1490493440   DEBUG: SDLKeyboard: scancode: 72, sym: 273, unicode: 0, modifier: 0
  413. 00:09:59 T:2236 M:1490493440   DEBUG: CApplication::OnKey: 61478 pressed, action is Up
  414. 00:09:59 T:2236 M:1479598080   DEBUG: SDLKeyboard: scancode: 72, sym: 273, unicode: 0, modifier: 0
  415. 00:09:59 T:2236 M:1479598080   DEBUG: CApplication::OnKey: 61478 pressed, action is Up
  416. 00:09:59 T:4124 M:1473314816   DEBUG: CImageLoader::DoWork - took 116 ms to load special://skin/backgrounds/music.jpg
  417. 00:10:00 T:2236 M:1481383936   DEBUG: SDLKeyboard: scancode: 72, sym: 273, unicode: 0, modifier: 0
  418. 00:10:00 T:2236 M:1481383936   DEBUG: CApplication::OnKey: 61478 pressed, action is Up
  419. 00:10:00 T:4124 M:1477451776   DEBUG: CImageLoader::DoWork - took 103 ms to load special://skin/backgrounds/videos.jpg
  420. 00:10:01 T:2236 M:1475305472   DEBUG: SDLKeyboard: scancode: 77, sym: 275, unicode: 0, modifier: 0
  421. 00:10:01 T:2236 M:1475305472   DEBUG: CApplication::OnKey: 61479 pressed, action is Right
  422. 00:10:13 T:2236 M:1498378240   DEBUG: SDLKeyboard: scancode: 28, sym: 13, unicode: 13, modifier: 0
  423. 00:10:13 T:2236 M:1498378240   DEBUG: CApplication::OnKey: 61453 pressed, action is Select
  424. 00:10:13 T:2236 M:1498365952   DEBUG: CApplication::ExecuteXBMCAction : Translating ActivateWindow(VideoFiles)
  425. 00:10:13 T:2236 M:1498365952   DEBUG: CApplication::ExecuteXBMCAction : To ActivateWindow(VideoFiles)
  426. 00:10:13 T:2236 M:1498365952   DEBUG: Activating window ID: 10024
  427. 00:10:13 T:2236 M:1498365952   DEBUG: Checking if window ID 10024 is locked.
  428. 00:10:13 T:2236 M:1498365952   DEBUG: ------ Window Deinit (Home.xml) ------
  429. 00:10:13 T:2236 M:1498415104   DEBUG: ------ Window Init (MyVideo.xml) ------
  430. 00:10:13 T:2236 M:1498415104    INFO: Loading skin file: MyVideo.xml
  431. 00:10:13 T:2236 M:1498365952   DEBUG: ADDON: cpluff: 'An information object at address 035B1C68 was registered.'
  432. 00:10:13 T:2236 M:1498365952   DEBUG: ADDON: cpluff: 'The information object at address 035B1C68 was unregistered.'
  433. 00:10:13 T:2236 M:1498365952   DEBUG: ADDON: cpluff: 'An information object at address 035B1C68 was registered.'
  434. 00:10:13 T:2236 M:1498365952   DEBUG: ADDON: cpluff: 'The information object at address 035B1C68 was unregistered.'
  435. 00:10:13 T:2236 M:1498361856   DEBUG: Load MyVideo.xml: 44.37ms
  436. 00:10:13 T:2236 M:1498333184   DEBUG: Alloc resources: 49.15ms (44.42 ms skin load)
  437. 00:10:13 T:2236 M:1498333184   DEBUG: CGUIMediaWindow::GetDirectory ()
  438. 00:10:13 T:2236 M:1498333184   DEBUG:   ParentPath = []
  439. 00:10:13 T:2236 M:1498333184   DEBUG: ADDON: cpluff: 'An information object at address 035B1C68 was registered.'
  440. 00:10:13 T:2236 M:1498333184   DEBUG: ADDON: cpluff: 'The information object at address 035B1C68 was unregistered.'
  441. 00:10:13 T:2236 M:1498333184   DEBUG: ADDON: cpluff: 'An information object at address 035B1C68 was registered.'
  442. 00:10:13 T:2236 M:1498333184   DEBUG: ADDON: cpluff: 'The information object at address 035B1C68 was unregistered.'
  443. 00:10:13 T:4328 M:1498312704   DEBUG: thread start, auto delete: 0
  444. 00:10:13 T:4328 M:1498312704   DEBUG: Thread 4328 terminating
  445. 00:10:14 T:2236 M:1494814720   DEBUG: SDLKeyboard: scancode: 28, sym: 13, unicode: 13, modifier: 0
  446. 00:10:14 T:2236 M:1494814720   DEBUG: CApplication::OnKey: 61453 pressed, action is Select
  447. 00:10:14 T:2236 M:1494745088    INFO: Loading skin file: DialogMediaSource.xml
  448. 00:10:14 T:2236 M:1494724608   DEBUG: Load DialogMediaSource.xml: 5.32ms
  449. 00:10:14 T:2236 M:1494724608   DEBUG: ------ Window Init (DialogMediaSource.xml) ------
  450. 00:10:14 T:2236 M:1494732800   DEBUG: Alloc resources: 0.48ms (0.00 ms skin load)
  451. 00:10:15 T:2236 M:1494638592   DEBUG: SDLKeyboard: scancode: 77, sym: 275, unicode: 0, modifier: 0
  452. 00:10:15 T:2236 M:1494638592   DEBUG: CApplication::OnKey: 61479 pressed, action is Right
  453. 00:10:16 T:2236 M:1499172864   DEBUG: SDLKeyboard: scancode: 28, sym: 13, unicode: 13, modifier: 0
  454. 00:10:16 T:2236 M:1499172864   DEBUG: CApplication::OnKey: 61453 pressed, action is Select
  455. 00:10:16 T:2236 M:1499156480    INFO: Loading skin file: FileBrowser.xml
  456. 00:10:16 T:2236 M:1499144192   DEBUG: Load FileBrowser.xml: 8.00ms
  457. 00:10:16 T:2236 M:1499140096   DEBUG: ------ Window Init (FileBrowser.xml) ------
  458. 00:10:16 T:2236 M:1499131904   DEBUG: Alloc resources: 0.34ms (0.00 ms skin load)
  459. 00:10:17 T:2236 M:1498636288   DEBUG: SDLKeyboard: scancode: 72, sym: 273, unicode: 0, modifier: 0
  460. 00:10:17 T:2236 M:1498636288   DEBUG: CApplication::OnKey: 61478 pressed, action is Up
  461. 00:10:17 T:2236 M:1498693632   DEBUG: SDLKeyboard: scancode: 72, sym: 273, unicode: 0, modifier: 0
  462. 00:10:17 T:2236 M:1498693632   DEBUG: CApplication::OnKey: 61478 pressed, action is Up
  463. 00:10:17 T:2236 M:1498710016   DEBUG: SDLKeyboard: scancode: 72, sym: 273, unicode: 0, modifier: 0
  464. 00:10:17 T:2236 M:1498710016   DEBUG: CApplication::OnKey: 61478 pressed, action is Up
  465. 00:10:17 T:2236 M:1498378240   DEBUG: SDLKeyboard: scancode: 72, sym: 273, unicode: 0, modifier: 0
  466. 00:10:17 T:2236 M:1498464256   DEBUG: CApplication::OnKey: 61478 pressed, action is Up
  467. 00:10:18 T:2236 M:1498386432   DEBUG: SDLKeyboard: scancode: 72, sym: 273, unicode: 0, modifier: 0
  468. 00:10:18 T:2236 M:1498386432   DEBUG: CApplication::OnKey: 61478 pressed, action is Up
  469. 00:10:18 T:2236 M:1498886144   DEBUG: SDLKeyboard: scancode: 72, sym: 273, unicode: 0, modifier: 0
  470. 00:10:18 T:2236 M:1498886144   DEBUG: CApplication::OnKey: 61478 pressed, action is Up
  471. 00:10:18 T:2236 M:1498931200   DEBUG: SDLKeyboard: scancode: 28, sym: 13, unicode: 13, modifier: 0
  472. 00:10:18 T:2236 M:1498931200   DEBUG: CApplication::OnKey: 61453 pressed, action is Select
  473. 00:10:18 T:4124 M:1498918912   DEBUG: CGetDirectory::DoWork retrieving smb://nickdesktop-pc/
  474. 00:10:18 T:4124 M:1498857472   DEBUG: Trying to connect to \\nickdesktop-pc with username() and password(XXXX)
  475. 00:10:18 T:4124 M:1498824704   DEBUG: Found Server/Share: \\nickdesktop-pc\Downloads
  476. 00:10:18 T:4124 M:1498824704   DEBUG: Found Server/Share: \\nickdesktop-pc\H
  477. 00:10:18 T:4124 M:1498824704   DEBUG: Found Server/Share: \\nickdesktop-pc\Media
  478. 00:10:18 T:4124 M:1498824704   DEBUG: Found Server/Share: \\nickdesktop-pc\Movies
  479. 00:10:18 T:4124 M:1498824704   DEBUG: Found Server/Share: \\nickdesktop-pc\Music
  480. 00:10:18 T:4124 M:1498824704   DEBUG: Found Server/Share: \\nickdesktop-pc\Music2
  481. 00:10:18 T:4124 M:1498824704   DEBUG: Found Server/Share: \\nickdesktop-pc\TV Shows
  482. 00:10:18 T:4124 M:1498824704   DEBUG: Found Server/Share: \\nickdesktop-pc\Users
  483. 00:10:18 T:4124 M:1498824704   DEBUG: Found Server/Share: \\nickdesktop-pc\Web Server
  484. 00:10:18 T:4124 M:1498820608   DEBUG: CGetDirectory::DoWork retrieving smb://nickdesktop-pc/ succeeded
  485. 00:10:18 T:4124 M:1498820608   DEBUG: CGetDirectory::OnJobComplete called
  486. 00:10:22 T:2236 M:1498771456   DEBUG: SDLKeyboard: scancode: 80, sym: 274, unicode: 0, modifier: 0
  487. 00:10:22 T:2236 M:1498771456   DEBUG: CApplication::OnKey: 61480 pressed, action is Down
  488. 00:10:22 T:2236 M:1498771456   DEBUG: SDLKeyboard: scancode: 80, sym: 274, unicode: 0, modifier: 0
  489. 00:10:22 T:2236 M:1498771456   DEBUG: CApplication::OnKey: 61480 pressed, action is Down
  490. 00:10:23 T:2236 M:1498206208   DEBUG: SDLKeyboard: scancode: 80, sym: 274, unicode: 0, modifier: 0
  491. 00:10:23 T:2236 M:1498206208   DEBUG: CApplication::OnKey: 61480 pressed, action is Down
  492. 00:10:23 T:2236 M:1497866240   DEBUG: SDLKeyboard: scancode: 80, sym: 274, unicode: 0, modifier: 0
  493. 00:10:23 T:2236 M:1497866240   DEBUG: CApplication::OnKey: 61480 pressed, action is Down
  494. 00:10:23 T:2236 M:1497903104   DEBUG: SDLKeyboard: scancode: 80, sym: 274, unicode: 0, modifier: 0
  495. 00:10:23 T:2236 M:1497903104   DEBUG: CApplication::OnKey: 61480 pressed, action is Down
  496. 00:10:23 T:2236 M:1497903104   DEBUG: SDLKeyboard: scancode: 80, sym: 274, unicode: 0, modifier: 0
  497. 00:10:23 T:2236 M:1497903104   DEBUG: CApplication::OnKey: 61480 pressed, action is Down
  498. 00:10:23 T:2236 M:1497903104   DEBUG: SDLKeyboard: scancode: 80, sym: 274, unicode: 0, modifier: 0
  499. 00:10:23 T:2236 M:1497903104   DEBUG: CApplication::OnKey: 61480 pressed, action is Down
  500. 00:10:24 T:2236 M:1498304512   DEBUG: SDLKeyboard: scancode: 28, sym: 13, unicode: 13, modifier: 0
  501. 00:10:24 T:2236 M:1498304512   DEBUG: CApplication::OnKey: 61453 pressed, action is Select
  502. 00:10:24 T:4124 M:1498296320   DEBUG: CGetDirectory::DoWork retrieving smb://nickdesktop-pc/TV Shows/
  503. 00:10:24 T:4124 M:1498296320   DEBUG: CGetDirectory::DoWork retrieving smb://nickdesktop-pc/TV Shows/ succeeded
  504. 00:10:24 T:4124 M:1498296320   DEBUG: CGetDirectory::OnJobComplete called
  505. 00:10:24 T:2236 M:1498423296   DEBUG: SDLKeyboard: scancode: 80, sym: 274, unicode: 0, modifier: 0
  506. 00:10:24 T:2236 M:1498423296   DEBUG: CApplication::OnKey: 61480 pressed, action is Down
  507. 00:10:25 T:2236 M:1498251264   DEBUG: SDLKeyboard: scancode: 28, sym: 13, unicode: 13, modifier: 0
  508. 00:10:25 T:2236 M:1498251264   DEBUG: CApplication::OnKey: 61453 pressed, action is Select
  509. 00:10:25 T:4124 M:1498238976   DEBUG: CGetDirectory::DoWork retrieving smb://nickdesktop-pc/TV Shows/24/
  510. 00:10:25 T:4124 M:1498427392   DEBUG: CGetDirectory::DoWork retrieving smb://nickdesktop-pc/TV Shows/24/ succeeded
  511. 00:10:25 T:4124 M:1498427392   DEBUG: CGetDirectory::OnJobComplete called
  512. 00:10:26 T:2236 M:1495281664   DEBUG: SDLKeyboard: scancode: 77, sym: 275, unicode: 0, modifier: 0
  513. 00:10:26 T:2236 M:1495281664   DEBUG: CApplication::OnKey: 61479 pressed, action is Right
  514. 00:10:26 T:2236 M:1495834624   DEBUG: SDLKeyboard: scancode: 75, sym: 276, unicode: 0, modifier: 0
  515. 00:10:26 T:2236 M:1495834624   DEBUG: CApplication::OnKey: 61477 pressed, action is Left
  516. 00:10:26 T:2236 M:1495830528   DEBUG: SDLKeyboard: scancode: 75, sym: 276, unicode: 0, modifier: 0
  517. 00:10:26 T:2236 M:1495830528   DEBUG: CApplication::OnKey: 61477 pressed, action is Left
  518. 00:10:27 T:2236 M:1496268800   DEBUG: SDLKeyboard: scancode: 28, sym: 13, unicode: 13, modifier: 0
  519. 00:10:27 T:2236 M:1496268800   DEBUG: CApplication::OnKey: 61453 pressed, action is Select
  520. 00:10:27 T:2236 M:1495883776   DEBUG: ------ Window Deinit (FileBrowser.xml) ------
  521. 00:10:28 T:2236 M:1497739264   DEBUG: SDLKeyboard: scancode: 80, sym: 274, unicode: 0, modifier: 0
  522. 00:10:28 T:2236 M:1497739264   DEBUG: CApplication::OnKey: 61480 pressed, action is Down
  523. 00:10:28 T:2236 M:1498271744   DEBUG: SDLKeyboard: scancode: 80, sym: 274, unicode: 0, modifier: 0
  524. 00:10:28 T:2236 M:1498271744   DEBUG: CApplication::OnKey: 61480 pressed, action is Down
  525. 00:10:29 T:2236 M:1498284032   DEBUG: SDLKeyboard: scancode: 80, sym: 274, unicode: 0, modifier: 0
  526. 00:10:29 T:2236 M:1498284032   DEBUG: CApplication::OnKey: 61480 pressed, trying keyboard action 61480
  527. 00:10:29 T:2236 M:1498284032   DEBUG: CApplication::OnKey: 61480 pressed, action is Down
  528. 00:10:29 T:2236 M:1498251264   DEBUG: SDLKeyboard: scancode: 75, sym: 276, unicode: 0, modifier: 0
  529. 00:10:29 T:2236 M:1498251264   DEBUG: CApplication::OnKey: 61477 pressed, action is Left
  530. 00:10:30 T:2236 M:1498738688   DEBUG: SECTION:UnloadDelayed(DLL: special://xbmcbin/system/ImageLib.dll)
  531. 00:10:30 T:2236 M:1498738688   DEBUG: Win32DllLoader::Unload ImageLib.dll
  532. 00:10:31 T:2236 M:1499062272   DEBUG: SDLKeyboard: scancode: 28, sym: 13, unicode: 13, modifier: 0
  533. 00:10:31 T:2236 M:1499062272   DEBUG: CApplication::OnKey: 61453 pressed, action is Select
  534. 00:10:31 T:2236 M:1499049984   DEBUG: ------ Window Init (DialogContentSettings.xml) ------
  535. 00:10:31 T:2236 M:1499049984    INFO: Loading skin file: DialogContentSettings.xml
  536. 00:10:31 T:2236 M:1499037696   DEBUG: ADDON: cpluff: 'Reference count of the information object at address  035A22B0 increased to 2.'
  537. 00:10:31 T:2236 M:1499037696   DEBUG: ADDON: cpluff: 'An information object at address 035B1AA8 was registered.'
  538. 00:10:31 T:2236 M:1499037696   DEBUG: ADDON: cpluff: 'Reference count of the information object at address 035A22B0 decreased to 1.'
  539. 00:10:31 T:2236 M:1499037696   DEBUG: ADDON: cpluff: 'The information object at address 035B1AA8 was unregistered.'
  540. 00:10:31 T:2236 M:1499037696   DEBUG: ADDON: cpluff: 'Reference count of the information object at address  035A22B0 increased to 2.'
  541. 00:10:31 T:2236 M:1499037696   DEBUG: ADDON: cpluff: 'Reference count of the information object at address 035A22B0 decreased to 1.'
  542. 00:10:31 T:2236 M:1499037696   DEBUG: ADDON: cpluff: 'Reference count of the information object at address  035A2E08 increased to 2.'
  543. 00:10:31 T:2236 M:1499037696   DEBUG: ADDON: cpluff: 'An information object at address 035B1AA8 was registered.'
  544. 00:10:31 T:2236 M:1499037696   DEBUG: ADDON: cpluff: 'Reference count of the information object at address 035A2E08 decreased to 1.'
  545. 00:10:31 T:2236 M:1499037696   DEBUG: ADDON: cpluff: 'The information object at address 035B1AA8 was unregistered.'
  546. 00:10:31 T:2236 M:1499037696   DEBUG: ADDON: cpluff: 'Reference count of the information object at address  035A2E08 increased to 2.'
  547. 00:10:31 T:2236 M:1499037696   DEBUG: ADDON: cpluff: 'Reference count of the information object at address 035A2E08 decreased to 1.'
  548. 00:10:31 T:2236 M:1499037696   DEBUG: ADDON: cpluff: 'Reference count of the information object at address  0369F630 increased to 2.'
  549. 00:10:31 T:2236 M:1499037696   DEBUG: ADDON: cpluff: 'An information object at address 035B1AA8 was registered.'
  550. 00:10:31 T:2236 M:1499037696   DEBUG: ADDON: cpluff: 'Reference count of the information object at address 0369F630 decreased to 1.'
  551. 00:10:31 T:2236 M:1499037696   DEBUG: ADDON: cpluff: 'The information object at address 035B1AA8 was unregistered.'
  552. 00:10:31 T:2236 M:1499037696   DEBUG: ADDON: cpluff: 'Reference count of the information object at address  0369F630 increased to 2.'
  553. 00:10:31 T:2236 M:1499037696   DEBUG: ADDON: cpluff: 'Reference count of the information object at address 0369F630 decreased to 1.'
  554. 00:10:31 T:2236 M:1499037696   DEBUG: Load DialogContentSettings.xml: 9.40ms
  555. 00:10:31 T:2236 M:1499545600   DEBUG: Alloc resources: 10.49ms (9.44 ms skin load)
  556. 00:10:32 T:2236 M:1499922432   DEBUG: SDLKeyboard: scancode: 28, sym: 13, unicode: 13, modifier: 0
  557. 00:10:32 T:2236 M:1499922432   DEBUG: CApplication::OnKey: 61453 pressed, action is Select
  558. 00:10:32 T:2236 M:1499910144   DEBUG: Win32DllLoader::Load(special://xbmcbin/system/ImageLib.dll)
  559. 00:10:32 T:2236 M:1499549696   DEBUG: SDLKeyboard: scancode: 28, sym: 13, unicode: 13, modifier: 0
  560. 00:10:32 T:2236 M:1499549696   DEBUG: CApplication::OnKey: 61453 pressed, action is Select
  561. 00:10:33 T:2236 M:1498943488   DEBUG: SDLKeyboard: scancode: 77, sym: 275, unicode: 0, modifier: 0
  562. 00:10:33 T:2236 M:1498943488   DEBUG: CApplication::OnKey: 61479 pressed, action is Right
  563. 00:10:34 T:2236 M:1498939392   DEBUG: SDLKeyboard: scancode: 77, sym: 275, unicode: 0, modifier: 0
  564. 00:10:34 T:2236 M:1498939392   DEBUG: CApplication::OnKey: 61479 pressed, action is Right
  565. 00:10:34 T:2236 M:1499582464   DEBUG: SDLKeyboard: scancode: 28, sym: 13, unicode: 13, modifier: 0
  566. 00:10:34 T:2236 M:1499582464   DEBUG: CApplication::OnKey: 61453 pressed, action is Select
  567. 00:10:35 T:2236 M:1499156480   DEBUG: SDLKeyboard: scancode: 28, sym: 13, unicode: 13, modifier: 0
  568. 00:10:35 T:2236 M:1499123712   DEBUG: CApplication::OnKey: 61453 pressed, action is Select
  569. 00:10:36 T:2236 M:1499594752   DEBUG: SDLKeyboard: scancode: 80, sym: 274, unicode: 0, modifier: 0
  570. 00:10:36 T:2236 M:1499594752   DEBUG: CApplication::OnKey: 61480 pressed, action is Down
  571. 00:10:36 T:2236 M:1499521024   DEBUG: SDLKeyboard: scancode: 28, sym: 13, unicode: 13, modifier: 0
  572. 00:10:36 T:2236 M:1499521024   DEBUG: CApplication::OnKey: 61453 pressed, action is Select
  573. 00:10:37 T:2236 M:1499660288   DEBUG: SDLKeyboard: scancode: 80, sym: 274, unicode: 0, modifier: 0
  574. 00:10:37 T:2236 M:1499660288   DEBUG: CApplication::OnKey: 61480 pressed, action is Down
  575. 00:10:37 T:2236 M:1499361280   DEBUG: SDLKeyboard: scancode: 80, sym: 274, unicode: 0, modifier: 0
  576. 00:10:37 T:2236 M:1499361280   DEBUG: CApplication::OnKey: 61480 pressed, action is Down
  577. 00:10:37 T:2236 M:1499385856   DEBUG: SDLKeyboard: scancode: 75, sym: 276, unicode: 0, modifier: 0
  578. 00:10:37 T:2236 M:1499385856   DEBUG: CApplication::OnKey: 61477 pressed, action is Left
  579. 00:10:38 T:2236 M:1499877376   DEBUG: SDLKeyboard: scancode: 28, sym: 13, unicode: 13, modifier: 0
  580. 00:10:38 T:2236 M:1499877376   DEBUG: CApplication::OnKey: 61453 pressed, action is Select
  581. 00:10:38 T:2236 M:1499865088   DEBUG: ------ Window Init (DialogAddonSettings.xml) ------
  582. 00:10:38 T:2236 M:1499865088    INFO: Loading skin file: DialogAddonSettings.xml
  583. 00:10:38 T:2236 M:1499852800   DEBUG: Load DialogAddonSettings.xml: 5.31ms
  584. 00:10:38 T:2236 M:1499840512   DEBUG: Alloc resources: 6.12ms (5.35 ms skin load)
  585. 00:10:39 T:2236 M:1498595328   DEBUG: SDLKeyboard: scancode: 72, sym: 273, unicode: 0, modifier: 0
  586. 00:10:39 T:2236 M:1498558464   DEBUG: CApplication::OnKey: 61478 pressed, action is Up
  587. 00:10:39 T:2236 M:1498378240   DEBUG: SDLKeyboard: scancode: 77, sym: 275, unicode: 0, modifier: 0
  588. 00:10:39 T:2236 M:1498378240   DEBUG: CApplication::OnKey: 61479 pressed, action is Right
  589. 00:10:40 T:2236 M:1499258880   DEBUG: SDLKeyboard: scancode: 80, sym: 274, unicode: 0, modifier: 0
  590. 00:10:40 T:2236 M:1499254784   DEBUG: CApplication::OnKey: 61480 pressed, action is Down
  591. 00:10:40 T:2236 M:1499217920   DEBUG: SDLKeyboard: scancode: 80, sym: 274, unicode: 0, modifier: 0
  592. 00:10:40 T:2236 M:1499217920   DEBUG: CApplication::OnKey: 61480 pressed, action is Down
  593. 00:10:41 T:2236 M:1499226112   DEBUG: SDLKeyboard: scancode: 72, sym: 273, unicode: 0, modifier: 0
  594. 00:10:41 T:2236 M:1499226112   DEBUG: CApplication::OnKey: 61478 pressed, action is Up
  595. 00:10:41 T:2236 M:1499451392   DEBUG: SDLKeyboard: scancode: 72, sym: 273, unicode: 0, modifier: 0
  596. 00:10:41 T:2236 M:1499451392   DEBUG: CApplication::OnKey: 61478 pressed, action is Up
  597. 00:10:41 T:2236 M:1499172864   DEBUG: SDLKeyboard: scancode: 28, sym: 13, unicode: 13, modifier: 0
  598. 00:10:41 T:2236 M:1499172864   DEBUG: CApplication::OnKey: 61453 pressed, action is Select
  599. 00:10:41 T:2236 M:1499176960   DEBUG: SDLKeyboard: scancode: 80, sym: 274, unicode: 0, modifier: 0
  600. 00:10:41 T:2236 M:1499176960   DEBUG: CApplication::OnKey: 61480 pressed, action is Down
  601. 00:10:42 T:2236 M:1499279360   DEBUG: SDLKeyboard: scancode: 80, sym: 274, unicode: 0, modifier: 0
  602. 00:10:42 T:2236 M:1499279360   DEBUG: CApplication::OnKey: 61480 pressed, action is Down
  603. 00:10:42 T:2236 M:1499828224   DEBUG: SDLKeyboard: scancode: 28, sym: 13, unicode: 13, modifier: 0
  604. 00:10:42 T:2236 M:1499828224   DEBUG: CApplication::OnKey: 61453 pressed, action is Select
  605. 00:10:43 T:2236 M:1499815936   DEBUG: SDLKeyboard: scancode: 80, sym: 274, unicode: 0, modifier: 0
  606. 00:10:43 T:2236 M:1499815936   DEBUG: CApplication::OnKey: 61480 pressed, action is Down
  607. 00:10:43 T:2236 M:1499574272   DEBUG: SDLKeyboard: scancode: 80, sym: 274, unicode: 0, modifier: 0
  608. 00:10:43 T:2236 M:1499574272   DEBUG: CApplication::OnKey: 61480 pressed, action is Down
  609. 00:10:44 T:2236 M:1498771456   DEBUG: SDLKeyboard: scancode: 77, sym: 275, unicode: 0, modifier: 0
  610. 00:10:44 T:2236 M:1498771456   DEBUG: CApplication::OnKey: 61479 pressed, action is Right
  611. 00:10:44 T:2236 M:1499262976   DEBUG: SDLKeyboard: scancode: 75, sym: 276, unicode: 0, modifier: 0
  612. 00:10:44 T:2236 M:1499262976   DEBUG: CApplication::OnKey: 61477 pressed, action is Left
  613. 00:10:44 T:2236 M:1498361856   DEBUG: SDLKeyboard: scancode: 28, sym: 13, unicode: 13, modifier: 0
  614. 00:10:44 T:2236 M:1498361856   DEBUG: CApplication::OnKey: 61453 pressed, action is Select
  615. 00:10:45 T:2236 M:1498333184   DEBUG: ------ Window Deinit (DialogAddonSettings.xml) ------
  616. 00:10:45 T:2236 M:1498533888   DEBUG: SDLKeyboard: scancode: 77, sym: 275, unicode: 0, modifier: 0
  617. 00:10:45 T:2236 M:1498533888   DEBUG: CApplication::OnKey: 61479 pressed, action is Right
  618. 00:10:46 T:2236 M:1498542080   DEBUG: SDLKeyboard: scancode: 28, sym: 13, unicode: 13, modifier: 0
  619. 00:10:46 T:2236 M:1498542080   DEBUG: CApplication::OnKey: 61453 pressed, action is Select
  620. 00:10:46 T:2236 M:1499435008   DEBUG: ------ Window Deinit (DialogContentSettings.xml) ------
  621. 00:10:46 T:2236 M:1499435008   DEBUG: ------ Window Deinit (DialogContentSettings.xml) ------
  622. 00:10:46 T:2236 M:1498959872   DEBUG: SDLKeyboard: scancode: 77, sym: 275, unicode: 0, modifier: 0
  623. 00:10:46 T:2236 M:1498959872   DEBUG: CApplication::OnKey: 61479 pressed, action is Right
  624. 00:10:47 T:2236 M:1498521600   DEBUG: SDLKeyboard: scancode: 28, sym: 13, unicode: 13, modifier: 0
  625. 00:10:47 T:2236 M:1498521600   DEBUG: CApplication::OnKey: 61453 pressed, action is Select
  626. 00:10:47 T:2236 M:1498615808   DEBUG: ------ Window Deinit (DialogMediaSource.xml) ------
  627. 00:10:47 T:2236 M:1498525696   DEBUG: ------ Window Init (DialogVideoScan.xml) ------
  628. 00:10:47 T:2236 M:1498525696    INFO: Loading skin file: DialogVideoScan.xml
  629. 00:10:47 T:2236 M:1498517504   DEBUG: Load DialogVideoScan.xml: 1.88ms
  630. 00:10:47 T:2236 M:1498513408   DEBUG: Alloc resources: 2.26ms (2.00 ms skin load)
  631. 00:10:47 T:2236 M:1498513408   DEBUG: CGUIMediaWindow::GetDirectory ()
  632. 00:10:47 T:2236 M:1498513408   DEBUG:   ParentPath = []
  633. 00:10:47 T:5908 M:1498513408   DEBUG: thread start, auto delete: 0
  634. 00:10:47 T:2236 M:1498497024   DEBUG: ADDON: cpluff: 'An information object at address 035B1C68 was registered.'
  635. 00:10:47 T:2236 M:1498497024   DEBUG: ADDON: cpluff: 'The information object at address 035B1C68 was unregistered.'
  636. 00:10:47 T:2236 M:1498497024   DEBUG: ADDON: cpluff: 'An information object at address 035B1C68 was registered.'
  637. 00:10:47 T:2236 M:1498497024   DEBUG: ADDON: cpluff: 'The information object at address 035B1C68 was unregistered.'
  638. 00:10:47 T:5908 M:1498497024  NOTICE: VideoInfoScanner: Starting scan ..
  639. 00:10:47 T:5908 M:1498497024   DEBUG: ADDON: cpluff: 'Reference count of the information object at address  035A2E08 increased to 2.'
  640. 00:10:47 T:5908 M:1498497024   DEBUG: ADDON: cpluff: 'Reference count of the information object at address 035A2E08 decreased to 1.'
  641. 00:10:47 T:5908 M:1498451968   DEBUG: ADDON: cpluff: 'Reference count of the information object at address  035A2E08 increased to 2.'
  642. 00:10:47 T:5908 M:1498451968   DEBUG: ADDON: cpluff: 'Reference count of the information object at address 035A2E08 decreased to 1.'
  643. 00:10:47 T:4988 M:1498447872   DEBUG: thread start, auto delete: 0
  644. 00:10:47 T:4988 M:1498443776   DEBUG: Thread 4988 terminating
  645. 00:10:47 T:5908 M:1498386432   DEBUG: VideoInfoScanner: No NFO file found. Using title search for 'smb://nickdesktop-pc/TV Shows/24/Season 1/'
  646. 00:10:47 T:5908 M:1498386432   DEBUG: Win32DllLoader::Load(special://xbmcbin/system/libcurl.dll)
  647. 00:10:47 T:5908 M:1498152960   DEBUG: Win32DllLoader::Load(special://xbmcbin/system/libidn-11.dll)
  648. 00:10:47 T:5908 M:1498152960   DEBUG: Win32DllLoader::Load(special://xbmcbin/system/libeay32.dll)
  649. 00:10:47 T:5908 M:1498152960   DEBUG: Win32DllLoader::Load(special://xbmcbin/system/libssl32.dll)
  650. 00:10:47 T:5908 M:1497800704   DEBUG: Win32DllLoader::Load(ADVAPI32.DLL)
  651. 00:10:47 T:5908 M:1497800704   DEBUG: Win32DllLoader::Load(KERNEL32.DLL)
  652. 00:10:47 T:5908 M:1497800704   DEBUG: Win32DllLoader::Load(NETAPI32.DLL)
  653. 00:10:47 T:5908 M:1497722880   DEBUG: FreeLibrary(NETAPI32.DLL) -> 076D74C8
  654. 00:10:47 T:5908 M:1497722880   DEBUG: Win32DllLoader::Unload NETAPI32.DLL
  655. 00:10:47 T:5908 M:1497763840   DEBUG: FreeLibrary(ADVAPI32.DLL) -> 076D7388
  656. 00:10:47 T:5908 M:1497763840   DEBUG: Win32DllLoader::Unload ADVAPI32.DLL
  657. 00:10:47 T:5908 M:1497763840   DEBUG: Win32DllLoader::Load(USER32.DLL)
  658. 00:10:47 T:5908 M:1497763840   DEBUG: FreeLibrary(USER32.DLL) -> 076D7388
  659. 00:10:47 T:5908 M:1497763840   DEBUG: Win32DllLoader::Unload USER32.DLL
  660. 00:10:48 T:5908 M:1497968640   DEBUG: FreeLibrary(KERNEL32.DLL) -> 076D73D8
  661. 00:10:48 T:5908 M:1497772032   DEBUG: Win32DllLoader::Unload KERNEL32.DLL
  662. 00:10:48 T:5908 M:1497047040   DEBUG: Win32DllLoader::Load(secur32.dll)
  663. 00:10:48 T:5908 M:1497006080   DEBUG: ADDON: cpluff: 'Reference count of the information object at address  035A2E08 increased to 2.'
  664. 00:10:48 T:5908 M:1497006080   DEBUG: ADDON: cpluff: 'Reference count of the information object at address 035A2E08 decreased to 1.'
  665. 00:10:48 T:5908 M:1497006080   DEBUG: CIMDB::InternalFindMovie: Searching for 'season 1' using The TVDB scraper (file: 'C:\Program Files (x86)\XBMC\addons\metadata.tvdb.com', content: 'tvshows')
  666. 00:10:48 T:5908 M:1497006080   DEBUG: scraper: CreateSearchUrl returned <url>http://www.thetvdb.com/api/GetSeries.php?seriesname=season%201&amp;language=en</url>
  667. 00:10:48 T:5908 M:1497006080   DEBUG: FileCurl::Open(04DBF13C) http://www.thetvdb.com/api/GetSeries.php?seriesname=season%201&language=en
  668. 00:10:48 T:5908 M:1496985600    INFO: XCURL::DllLibCurlGlobal::easy_aquire - Created session to http://www.thetvdb.com
  669. 00:10:48 T:5908 M:1496854528   DEBUG: FileCurl::Close(04DBF13C) http://www.thetvdb.com/api/GetSeries.php?seriesname=season%201&language=en
  670. 00:10:48 T:5908 M:1496854528   DEBUG: scraper: GetSearchResults returned <?xml version="1.0" encoding="utf-8" standalone="yes"?><results></results>
  671. 00:10:48 T:5908 M:1496854528   DEBUG: ADDON: cpluff: 'Reference count of the information object at address  035A2E08 increased to 2.'
  672. 00:10:48 T:5908 M:1496854528   DEBUG: ADDON: cpluff: 'Reference count of the information object at address 035A2E08 decreased to 1.'
  673. 00:10:48 T:5908 M:1496850432   DEBUG: VideoInfoScanner: No NFO file found. Using title search for 'smb://nickdesktop-pc/TV Shows/24/Season 2/'
  674. 00:10:48 T:5908 M:1496850432   DEBUG: ADDON: cpluff: 'Reference count of the information object at address  035A2E08 increased to 2.'
  675. 00:10:48 T:5908 M:1496850432   DEBUG: ADDON: cpluff: 'Reference count of the information object at address 035A2E08 decreased to 1.'
  676. 00:10:48 T:5908 M:1496850432   DEBUG: CIMDB::InternalFindMovie: Searching for 'season 2' using The TVDB scraper (file: 'C:\Program Files (x86)\XBMC\addons\metadata.tvdb.com', content: 'tvshows')
  677. 00:10:48 T:5908 M:1496850432   DEBUG: scraper: CreateSearchUrl returned <url>http://www.thetvdb.com/api/GetSeries.php?seriesname=season%202&amp;language=en</url>
  678. 00:10:48 T:5908 M:1496850432   DEBUG: FileCurl::Open(04DBF13C) http://www.thetvdb.com/api/GetSeries.php?seriesname=season%202&language=en
  679. 00:10:49 T:5908 M:1496879104   DEBUG: FileCurl::Close(04DBF13C) http://www.thetvdb.com/api/GetSeries.php?seriesname=season%202&language=en
  680. 00:10:49 T:5908 M:1496879104   DEBUG: scraper: GetSearchResults returned <?xml version="1.0" encoding="utf-8" standalone="yes"?><results></results>
  681. 00:10:49 T:5908 M:1496879104   DEBUG: ADDON: cpluff: 'Reference count of the information object at address  035A2E08 increased to 2.'
  682. 00:10:49 T:5908 M:1496879104   DEBUG: ADDON: cpluff: 'Reference count of the information object at address 035A2E08 decreased to 1.'
  683. 00:10:49 T:5908 M:1496879104   DEBUG: VideoInfoScanner: No NFO file found. Using title search for 'smb://nickdesktop-pc/TV Shows/24/Season 3/'
  684. 00:10:49 T:5908 M:1496879104   DEBUG: ADDON: cpluff: 'Reference count of the information object at address  035A2E08 increased to 2.'
  685. 00:10:49 T:5908 M:1496879104   DEBUG: ADDON: cpluff: 'Reference count of the information object at address 035A2E08 decreased to 1.'
  686. 00:10:49 T:5908 M:1496879104   DEBUG: CIMDB::InternalFindMovie: Searching for 'season 3' using The TVDB scraper (file: 'C:\Program Files (x86)\XBMC\addons\metadata.tvdb.com', content: 'tvshows')
  687. 00:10:49 T:5908 M:1496879104   DEBUG: scraper: CreateSearchUrl returned <url>http://www.thetvdb.com/api/GetSeries.php?seriesname=season%203&amp;language=en</url>
  688. 00:10:49 T:5908 M:1496879104   DEBUG: FileCurl::Open(04DBF13C) http://www.thetvdb.com/api/GetSeries.php?seriesname=season%203&language=en
  689. 00:10:49 T:5908 M:1496936448   DEBUG: FileCurl::Close(04DBF13C) http://www.thetvdb.com/api/GetSeries.php?seriesname=season%203&language=en
  690. 00:10:49 T:5908 M:1496936448   DEBUG: scraper: GetSearchResults returned <?xml version="1.0" encoding="utf-8" standalone="yes"?><results></results>
  691. 00:10:49 T:5908 M:1496936448   DEBUG: ADDON: cpluff: 'Reference count of the information object at address  035A2E08 increased to 2.'
  692. 00:10:49 T:5908 M:1496936448   DEBUG: ADDON: cpluff: 'Reference count of the information object at address 035A2E08 decreased to 1.'
  693. 00:10:49 T:5908 M:1496498176   DEBUG: VideoInfoScanner: No NFO file found. Using title search for 'smb://nickdesktop-pc/TV Shows/24/Season 4/'
  694. 00:10:49 T:5908 M:1496498176   DEBUG: ADDON: cpluff: 'Reference count of the information object at address  035A2E08 increased to 2.'
  695. 00:10:49 T:5908 M:1496498176   DEBUG: ADDON: cpluff: 'Reference count of the information object at address 035A2E08 decreased to 1.'
  696. 00:10:49 T:5908 M:1496498176   DEBUG: CIMDB::InternalFindMovie: Searching for 'season 4' using The TVDB scraper (file: 'C:\Program Files (x86)\XBMC\addons\metadata.tvdb.com', content: 'tvshows')
  697. 00:10:49 T:5908 M:1496498176   DEBUG: scraper: CreateSearchUrl returned <url>http://www.thetvdb.com/api/GetSeries.php?seriesname=season%204&amp;language=en</url>
  698. 00:10:49 T:5908 M:1496498176   DEBUG: FileCurl::Open(04DBF13C) http://www.thetvdb.com/api/GetSeries.php?seriesname=season%204&language=en
  699. 00:10:49 T:5908 M:1496764416   DEBUG: FileCurl::Close(04DBF13C) http://www.thetvdb.com/api/GetSeries.php?seriesname=season%204&language=en
  700. 00:10:49 T:5908 M:1496764416   DEBUG: scraper: GetSearchResults returned <?xml version="1.0" encoding="utf-8" standalone="yes"?><results></results>
  701. 00:10:49 T:5908 M:1496866816   DEBUG: ADDON: cpluff: 'Reference count of the information object at address  035A2E08 increased to 2.'
  702. 00:10:49 T:5908 M:1496866816   DEBUG: ADDON: cpluff: 'Reference count of the information object at address 035A2E08 decreased to 1.'
  703. 00:10:49 T:5908 M:1496846336   DEBUG: VideoInfoScanner: No NFO file found. Using title search for 'smb://nickdesktop-pc/TV Shows/24/Season 5/'
  704. 00:10:49 T:5908 M:1496846336   DEBUG: ADDON: cpluff: 'Reference count of the information object at address  035A2E08 increased to 2.'
  705. 00:10:49 T:5908 M:1496846336   DEBUG: ADDON: cpluff: 'Reference count of the information object at address 035A2E08 decreased to 1.'
  706. 00:10:49 T:5908 M:1496846336   DEBUG: CIMDB::InternalFindMovie: Searching for 'season 5' using The TVDB scraper (file: 'C:\Program Files (x86)\XBMC\addons\metadata.tvdb.com', content: 'tvshows')
  707. 00:10:49 T:5908 M:1496846336   DEBUG: scraper: CreateSearchUrl returned <url>http://www.thetvdb.com/api/GetSeries.php?seriesname=season%205&amp;language=en</url>
  708. 00:10:49 T:5908 M:1496846336   DEBUG: FileCurl::Open(04DBF13C) http://www.thetvdb.com/api/GetSeries.php?seriesname=season%205&language=en
  709. 00:10:49 T:5908 M:1496891392   DEBUG: FileCurl::Close(04DBF13C) http://www.thetvdb.com/api/GetSeries.php?seriesname=season%205&language=en
  710. 00:10:49 T:5908 M:1496891392   DEBUG: scraper: GetSearchResults returned <?xml version="1.0" encoding="utf-8" standalone="yes"?><results></results>
  711. 00:10:49 T:5908 M:1496891392   DEBUG: ADDON: cpluff: 'Reference count of the information object at address  035A2E08 increased to 2.'
  712. 00:10:49 T:5908 M:1496891392   DEBUG: ADDON: cpluff: 'Reference count of the information object at address 035A2E08 decreased to 1.'
  713. 00:10:49 T:5908 M:1496891392   DEBUG: VideoInfoScanner: No NFO file found. Using title search for 'smb://nickdesktop-pc/TV Shows/24/Season 6/'
  714. 00:10:49 T:5908 M:1496891392   DEBUG: ADDON: cpluff: 'Reference count of the information object at address  035A2E08 increased to 2.'
  715. 00:10:49 T:5908 M:1496891392   DEBUG: ADDON: cpluff: 'Reference count of the information object at address 035A2E08 decreased to 1.'
  716. 00:10:49 T:5908 M:1496891392   DEBUG: CIMDB::InternalFindMovie: Searching for 'season 6' using The TVDB scraper (file: 'C:\Program Files (x86)\XBMC\addons\metadata.tvdb.com', content: 'tvshows')
  717. 00:10:49 T:5908 M:1496891392   DEBUG: scraper: CreateSearchUrl returned <url>http://www.thetvdb.com/api/GetSeries.php?seriesname=season%206&amp;language=en</url>
  718. 00:10:49 T:5908 M:1496891392   DEBUG: FileCurl::Open(04DBF13C) http://www.thetvdb.com/api/GetSeries.php?seriesname=season%206&language=en
  719. 00:10:49 T:5908 M:1496260608   DEBUG: FileCurl::Close(04DBF13C) http://www.thetvdb.com/api/GetSeries.php?seriesname=season%206&language=en
  720. 00:10:49 T:5908 M:1496260608   DEBUG: scraper: GetSearchResults returned <?xml version="1.0" encoding="utf-8" standalone="yes"?><results></results>
  721. 00:10:49 T:5908 M:1496260608   DEBUG: ADDON: cpluff: 'Reference count of the information object at address  035A2E08 increased to 2.'
  722. 00:10:49 T:5908 M:1496260608   DEBUG: ADDON: cpluff: 'Reference count of the information object at address 035A2E08 decreased to 1.'
  723. 00:10:49 T:5908 M:1497812992   DEBUG: VideoInfoScanner: No NFO file found. Using title search for 'smb://nickdesktop-pc/TV Shows/24/Season 7/'
  724. 00:10:49 T:5908 M:1497812992   DEBUG: ADDON: cpluff: 'Reference count of the information object at address  035A2E08 increased to 2.'
  725. 00:10:49 T:5908 M:1497812992   DEBUG: ADDON: cpluff: 'Reference count of the information object at address 035A2E08 decreased to 1.'
  726. 00:10:49 T:5908 M:1497812992   DEBUG: CIMDB::InternalFindMovie: Searching for 'season 7' using The TVDB scraper (file: 'C:\Program Files (x86)\XBMC\addons\metadata.tvdb.com', content: 'tvshows')
  727. 00:10:49 T:5908 M:1497812992   DEBUG: scraper: CreateSearchUrl returned <url>http://www.thetvdb.com/api/GetSeries.php?seriesname=season%207&amp;language=en</url>
  728. 00:10:49 T:5908 M:1497763840   DEBUG: FileCurl::Open(04DBF13C) http://www.thetvdb.com/api/GetSeries.php?seriesname=season%207&language=en
  729. 00:10:49 T:5908 M:1496158208   DEBUG: FileCurl::Close(04DBF13C) http://www.thetvdb.com/api/GetSeries.php?seriesname=season%207&language=en
  730. 00:10:49 T:5908 M:1496158208   DEBUG: scraper: GetSearchResults returned <?xml version="1.0" encoding="utf-8" standalone="yes"?><results></results>
  731. 00:10:49 T:5908 M:1496158208   DEBUG: ADDON: cpluff: 'Reference count of the information object at address  035A2E08 increased to 2.'
  732. 00:10:49 T:5908 M:1496158208   DEBUG: ADDON: cpluff: 'Reference count of the information object at address 035A2E08 decreased to 1.'
  733. 00:10:49 T:5908 M:1496158208   DEBUG: VideoInfoScanner: No NFO file found. Using title search for 'smb://nickdesktop-pc/TV Shows/24/Season 8/'
  734. 00:10:49 T:5908 M:1496158208   DEBUG: ADDON: cpluff: 'Reference count of the information object at address  035A2E08 increased to 2.'
  735. 00:10:49 T:5908 M:1496158208   DEBUG: ADDON: cpluff: 'Reference count of the information object at address 035A2E08 decreased to 1.'
  736. 00:10:49 T:5908 M:1496158208   DEBUG: CIMDB::InternalFindMovie: Searching for 'season 8' using The TVDB scraper (file: 'C:\Program Files (x86)\XBMC\addons\metadata.tvdb.com', content: 'tvshows')
  737. 00:10:49 T:5908 M:1496158208   DEBUG: scraper: CreateSearchUrl returned <url>http://www.thetvdb.com/api/GetSeries.php?seriesname=season%208&amp;language=en</url>
  738. 00:10:49 T:5908 M:1496158208   DEBUG: FileCurl::Open(04DBF13C) http://www.thetvdb.com/api/GetSeries.php?seriesname=season%208&language=en
  739. 00:10:50 T:5908 M:1496186880   DEBUG: FileCurl::Close(04DBF13C) http://www.thetvdb.com/api/GetSeries.php?seriesname=season%208&language=en
  740. 00:10:50 T:5908 M:1496186880   DEBUG: scraper: GetSearchResults returned <?xml version="1.0" encoding="utf-8" standalone="yes"?><results></results>
  741. 00:10:50 T:5908 M:1496186880   DEBUG: VideoInfoScanner: No (new) information was found in dir smb://nickdesktop-pc/TV Shows/24/
  742. 00:10:50 T:5908 M:1496199168  NOTICE: VideoInfoScanner: Finished scan. Scanning for video info took 00:02
  743. 00:10:50 T:5908 M:1496199168    INFO: Video scan was stopped or finished ... restoring FindRemoteThumbs
  744. 00:10:50 T:5908 M:1496199168   DEBUG: Thread 5908 terminating
  745. 00:10:50 T:2236 M:1497690112   DEBUG: ------ Window Deinit (DialogVideoScan.xml) ------
  746. 00:10:52 T:2236 M:1497829376   DEBUG: SDLKeyboard: scancode: 14, sym: 8, unicode: 8, modifier: 0
  747. 00:10:52 T:2236 M:1497829376   DEBUG: CApplication::OnKey: 61448 pressed, action is ParentDir
  748. 00:10:52 T:2236 M:1497821184   DEBUG: CGUIWindowManager::PreviousWindow: Deactivate
  749. 00:10:52 T:2236 M:1497821184   DEBUG: ------ Window Deinit (MyVideo.xml) ------
  750. 00:10:52 T:2236 M:1497821184   DEBUG: CGUIWindowManager::PreviousWindow: Activate new
  751. 00:10:52 T:2236 M:1497821184   DEBUG: ------ Window Init (Home.xml) ------
  752. 00:10:52 T:2236 M:1497821184    INFO: Loading skin file: Home.xml
  753. 00:10:52 T:2236 M:1497780224   DEBUG: Load Home.xml: 26.33ms
  754. 00:10:52 T:2236 M:1497767936   DEBUG: Alloc resources: 28.08ms (26.40 ms skin load)
  755. 00:10:52 T:2236 M:1494892544   DEBUG: CApplication::ExecuteXBMCAction : Translating SetFocus(9000)
  756. 00:10:52 T:2236 M:1494892544   DEBUG: CApplication::ExecuteXBMCAction : To SetFocus(9000)
  757. 00:10:53 T:2236 M:1496346624   DEBUG: SDLKeyboard: scancode: 77, sym: 275, unicode: 0, modifier: 0
  758. 00:10:53 T:2236 M:1496346624   DEBUG: CApplication::OnKey: 61479 pressed, action is Right
  759. 00:10:55 T:4124 M:1497059328   DEBUG: Thread 4124 terminating (autodelete)
  760. 00:10:55 T:2236 M:1497206784   DEBUG: SDLKeyboard: scancode: 80, sym: 274, unicode: 0, modifier: 0
  761. 00:10:55 T:2236 M:1497206784   DEBUG: CApplication::OnKey: 61480 pressed, action is Down
  762. 00:10:56 T:2236 M:1497698304   DEBUG: SDLKeyboard: scancode: 28, sym: 13, unicode: 13, modifier: 0
  763. 00:10:56 T:2236 M:1497698304   DEBUG: CApplication::OnKey: 61453 pressed, action is Select
  764. 00:10:56 T:2236 M:1497686016   DEBUG: CApplication::ExecuteXBMCAction : Translating ActivateWindow(VideoLibrary)
  765. 00:10:56 T:2236 M:1497686016   DEBUG: CApplication::ExecuteXBMCAction : To ActivateWindow(VideoLibrary)
  766. 00:10:56 T:2236 M:1497686016   DEBUG: Activating window ID: 10025
  767. 00:10:56 T:2236 M:1497686016   DEBUG: Checking if window ID 10024 is locked.
  768. 00:10:56 T:2236 M:1497686016   DEBUG: ------ Window Deinit (Home.xml) ------
  769. 00:10:57 T:2236 M:1497796608   DEBUG: ------ Window Init (MyVideoNav.xml) ------
  770. 00:10:57 T:2236 M:1497825280    INFO: Loading skin file: MyVideoNav.xml
  771. 00:10:57 T:2236 M:1497575424   DEBUG: ADDON: cpluff: 'An information object at address 035B1C68 was registered.'
  772. 00:10:57 T:2236 M:1497575424   DEBUG: ADDON: cpluff: 'The information object at address 035B1C68 was unregistered.'
  773. 00:10:57 T:2236 M:1497575424   DEBUG: ADDON: cpluff: 'An information object at address 035B1C68 was registered.'
  774. 00:10:57 T:2236 M:1497571328   DEBUG: ADDON: cpluff: 'The information object at address 035B1C68 was unregistered.'
  775. 00:10:57 T:2236 M:1497509888   DEBUG: Load MyVideoNav.xml: 90.60ms
  776. 00:10:57 T:2236 M:1497346048   DEBUG: Alloc resources: 95.93ms (90.65 ms skin load)
  777. 00:10:57 T:2236 M:1497341952   DEBUG: CGUIMediaWindow::GetDirectory ()
  778. 00:10:57 T:2236 M:1497341952   DEBUG:   ParentPath = []
  779. 00:10:57 T:2236 M:1497227264   DEBUG: ADDON: cpluff: 'An information object at address 035B1C68 was registered.'
  780. 00:10:57 T:2236 M:1497227264   DEBUG: ADDON: cpluff: 'The information object at address 035B1C68 was unregistered.'
  781. 00:10:57 T:2236 M:1497227264   DEBUG: ADDON: cpluff: 'An information object at address 035B1C68 was registered.'
  782. 00:10:57 T:2236 M:1497227264   DEBUG: ADDON: cpluff: 'The information object at address 035B1C68 was unregistered.'
  783. 00:10:57 T:2236 M:1497227264   DEBUG: ADDON: cpluff: 'An information object at address 035B1C68 was registered.'
  784. 00:10:57 T:2236 M:1497227264   DEBUG: ADDON: cpluff: 'The information object at address 035B1C68 was unregistered.'
  785. 00:10:57 T:2236 M:1497227264   DEBUG: ADDON: cpluff: 'An information object at address 035B1C68 was registered.'
  786. 00:10:57 T:2236 M:1497227264   DEBUG: ADDON: cpluff: 'The information object at address 035B1C68 was unregistered.'
  787. 00:10:57 T:3120 M:1497231360   DEBUG: thread start, auto delete: 0
  788. 00:10:57 T:3120 M:1497231360   DEBUG: Thread 3120 terminating
  789. 00:10:59 T:2236 M:1497554944   DEBUG: SDLKeyboard: scancode: 14, sym: 8, unicode: 8, modifier: 0
  790. 00:10:59 T:2236 M:1497554944   DEBUG: CApplication::OnKey: 61448 pressed, action is ParentDir
  791. 00:10:59 T:2236 M:1497546752   DEBUG: CGUIWindowManager::PreviousWindow: Deactivate
  792. 00:10:59 T:2236 M:1497546752   DEBUG: ------ Window Deinit (MyVideoNav.xml) ------
  793. 00:10:59 T:2236 M:1497108480   DEBUG: CGUIWindowManager::PreviousWindow: Activate new
  794. 00:10:59 T:2236 M:1497108480   DEBUG: ------ Window Init (Home.xml) ------
  795. 00:10:59 T:2236 M:1497108480    INFO: Loading skin file: Home.xml
  796. 00:10:59 T:2236 M:1497067520   DEBUG: Load Home.xml: 27.83ms
  797. 00:10:59 T:2236 M:1497022464   DEBUG: Alloc resources: 29.62ms (27.89 ms skin load)
  798. 00:10:59 T:2236 M:1495781376   DEBUG: CApplication::ExecuteXBMCAction : Translating SetFocus(9000)
  799. 00:10:59 T:2236 M:1495781376   DEBUG: CApplication::ExecuteXBMCAction : To SetFocus(9000)
  800. 00:11:00 T:2236 M:1494364160   DEBUG: SDLKeyboard: scancode: 28, sym: 13, unicode: 13, modifier: 0
  801. 00:11:00 T:2236 M:1494364160   DEBUG: CApplication::OnKey: 61453 pressed, action is Select
  802. 00:11:00 T:2236 M:1494351872   DEBUG: CApplication::ExecuteXBMCAction : Translating ActivateWindow(Videos)
  803. 00:11:00 T:2236 M:1494351872   DEBUG: CApplication::ExecuteXBMCAction : To ActivateWindow(Videos)
  804. 00:11:00 T:2236 M:1494351872   DEBUG: Activating window ID: 10025
  805. 00:11:00 T:2236 M:1494351872   DEBUG: Checking if window ID 10024 is locked.
  806. 00:11:00 T:2236 M:1494351872   DEBUG: ------ Window Deinit (Home.xml) ------
  807. 00:11:00 T:2236 M:1497526272   DEBUG: ------ Window Init (MyVideoNav.xml) ------
  808. 00:11:00 T:2236 M:1497526272    INFO: Loading skin file: MyVideoNav.xml
  809. 00:11:00 T:2236 M:1497493504   DEBUG: ADDON: cpluff: 'An information object at address 035B1C68 was registered.'
  810. 00:11:00 T:2236 M:1497493504   DEBUG: ADDON: cpluff: 'The information object at address 035B1C68 was unregistered.'
  811. 00:11:00 T:2236 M:1497493504   DEBUG: ADDON: cpluff: 'An information object at address 035B1C68 was registered.'
  812. 00:11:00 T:2236 M:1497493504   DEBUG: ADDON: cpluff: 'The information object at address 035B1C68 was unregistered.'
  813. 00:11:00 T:2236 M:1497493504   DEBUG: Load MyVideoNav.xml: 90.65ms
  814. 00:11:00 T:2236 M:1497419776   DEBUG: Alloc resources: 95.44ms (90.69 ms skin load)
  815. 00:11:00 T:2236 M:1497419776   DEBUG: CGUIMediaWindow::GetDirectory ()
  816. 00:11:00 T:2236 M:1497419776   DEBUG:   ParentPath = []
  817. 00:11:00 T:2236 M:1497419776   DEBUG: ADDON: cpluff: 'An information object at address 035B1C68 was registered.'
  818. 00:11:00 T:2236 M:1497419776   DEBUG: ADDON: cpluff: 'The information object at address 035B1C68 was unregistered.'
  819. 00:11:00 T:2236 M:1497419776   DEBUG: ADDON: cpluff: 'An information object at address 035B1C68 was registered.'
  820. 00:11:00 T:2236 M:1497419776   DEBUG: ADDON: cpluff: 'The information object at address 035B1C68 was unregistered.'
  821. 00:11:00 T:5076 M:1497419776   DEBUG: thread start, auto delete: 0
  822. 00:11:00 T:5076 M:1497419776   DEBUG: Thread 5076 terminating
  823. 00:11:00 T:2236 M:1497448448   DEBUG: ADDON: cpluff: 'An information object at address 035B1C68 was registered.'
  824. 00:11:00 T:2236 M:1497448448   DEBUG: ADDON: cpluff: 'The information object at address 035B1C68 was unregistered.'
  825. 00:11:00 T:2236 M:1497448448   DEBUG: ADDON: cpluff: 'An information object at address 035B1C68 was registered.'
  826. 00:11:00 T:2236 M:1497448448   DEBUG: ADDON: cpluff: 'The information object at address 035B1C68 was unregistered.'
  827. 00:11:01 T:2236 M:1496752128   DEBUG: SDLKeyboard: scancode: 14, sym: 8, unicode: 8, modifier: 0
  828. 00:11:01 T:2236 M:1496752128   DEBUG: CApplication::OnKey: 61448 pressed, action is ParentDir
  829. 00:11:01 T:2236 M:1496743936   DEBUG: CGUIWindowManager::PreviousWindow: Deactivate
  830. 00:11:01 T:2236 M:1496743936   DEBUG: ------ Window Deinit (MyVideoNav.xml) ------
  831. 00:11:02 T:2236 M:1496743936   DEBUG: CGUIWindowManager::PreviousWindow: Activate new
  832. 00:11:02 T:2236 M:1496743936   DEBUG: ------ Window Init (Home.xml) ------
  833. 00:11:02 T:2236 M:1496743936    INFO: Loading skin file: Home.xml
  834. 00:11:02 T:2236 M:1496702976   DEBUG: Load Home.xml: 26.59ms
  835. 00:11:02 T:2236 M:1496657920   DEBUG: Alloc resources: 28.33ms (26.65 ms skin load)
  836. 00:11:02 T:2236 M:1494028288   DEBUG: CApplication::ExecuteXBMCAction : Translating SetFocus(9000)
  837. 00:11:02 T:2236 M:1494028288   DEBUG: CApplication::ExecuteXBMCAction : To SetFocus(9000)
  838. 00:11:02 T:2236 M:1493606400   DEBUG: SDLKeyboard: scancode: 77, sym: 275, unicode: 0, modifier: 0
  839. 00:11:02 T:2236 M:1493606400   DEBUG: CApplication::OnKey: 61479 pressed, action is Right
  840. 00:11:03 T:2236 M:1493307392   DEBUG: SDLKeyboard: scancode: 72, sym: 273, unicode: 0, modifier: 0
  841. 00:11:03 T:2236 M:1493307392   DEBUG: CApplication::OnKey: 61478 pressed, action is Up
  842. 00:11:03 T:2236 M:1496694784   DEBUG: SDLKeyboard: scancode: 28, sym: 13, unicode: 13, modifier: 0
  843. 00:11:03 T:2236 M:1496694784   DEBUG: CApplication::OnKey: 61453 pressed, action is Select
  844. 00:11:03 T:2236 M:1496682496   DEBUG: CApplication::ExecuteXBMCAction : Translating ActivateWindow(VideoFiles)
  845. 00:11:03 T:2236 M:1496682496   DEBUG: CApplication::ExecuteXBMCAction : To ActivateWindow(VideoFiles)
  846. 00:11:03 T:2236 M:1496682496   DEBUG: Activating window ID: 10024
  847. 00:11:03 T:2236 M:1496682496   DEBUG: Checking if window ID 10024 is locked.
  848. 00:11:03 T:2236 M:1496682496   DEBUG: ------ Window Deinit (Home.xml) ------
  849. 00:11:03 T:2236 M:1497407488   DEBUG: ------ Window Init (MyVideo.xml) ------
  850. 00:11:03 T:2236 M:1497407488    INFO: Loading skin file: MyVideo.xml
  851. 00:11:03 T:2236 M:1497382912   DEBUG: ADDON: cpluff: 'An information object at address 035B1C68 was registered.'
  852. 00:11:03 T:2236 M:1497382912   DEBUG: ADDON: cpluff: 'The information object at address 035B1C68 was unregistered.'
  853. 00:11:03 T:2236 M:1497382912   DEBUG: ADDON: cpluff: 'An information object at address 035B1C68 was registered.'
  854. 00:11:03 T:2236 M:1497382912   DEBUG: ADDON: cpluff: 'The information object at address 035B1C68 was unregistered.'
  855. 00:11:03 T:2236 M:1497382912   DEBUG: Load MyVideo.xml: 42.37ms
  856. 00:11:03 T:2236 M:1497309184   DEBUG: Alloc resources: 46.87ms (42.42 ms skin load)
  857. 00:11:03 T:2236 M:1497309184   DEBUG: CGUIMediaWindow::GetDirectory ()
  858. 00:11:03 T:2236 M:1497309184   DEBUG:   ParentPath = []
  859. 00:11:03 T:2236 M:1497309184   DEBUG: ADDON: cpluff: 'An information object at address 035B1C68 was registered.'
  860. 00:11:03 T:2236 M:1497309184   DEBUG: ADDON: cpluff: 'The information object at address 035B1C68 was unregistered.'
  861. 00:11:03 T:2236 M:1497309184   DEBUG: ADDON: cpluff: 'An information object at address 035B1C68 was registered.'
  862. 00:11:03 T:2236 M:1497309184   DEBUG: ADDON: cpluff: 'The information object at address 035B1C68 was unregistered.'
  863. 00:11:03 T:6064 M:1497309184   DEBUG: thread start, auto delete: 0
  864. 00:11:03 T:6064 M:1497309184   DEBUG: Thread 6064 terminating
  865. 00:11:04 T:2236 M:1496985600   DEBUG: SDLKeyboard: scancode: 72, sym: 273, unicode: 0, modifier: 0
  866. 00:11:04 T:2236 M:1496985600   DEBUG: CApplication::OnKey: 61478 pressed, action is Up
  867. 00:11:13 T:2236 M:1497583616   DEBUG: SDLKeyboard: scancode: 56, sym: 308, unicode: 0, modifier: 0
  868. 00:11:13 T:2236 M:1497399296   DEBUG: SDLKeyboard: scancode: 56, sym: 308, unicode: 0, modifier: 100
  869. 00:11:13 T:2236 M:1497399296   DEBUG: CApplication::OnKey: 323748 pressed, action is
  870. 00:11:13 T:2236 M:1497415680   DEBUG: SDLKeyboard: scancode: 56, sym: 308, unicode: 0, modifier: 100
  871. 00:11:13 T:2236 M:1497415680   DEBUG: CApplication::OnKey: 323748 pressed, action is
  872. 00:11:13 T:2236 M:1497399296   DEBUG: SDLKeyboard: scancode: 56, sym: 308, unicode: 0, modifier: 100
  873. 00:11:13 T:2236 M:1497399296   DEBUG: CApplication::OnKey: 323748 pressed, action is
  874. 00:11:14 T:2236 M:1497841664   DEBUG: SDLKeyboard: scancode: 56, sym: 308, unicode: 0, modifier: 0
  875. 00:11:15 T:2236 M:1497034752   DEBUG: CWinEventsWin32::WndProcWindow is active
  876. 00:11:15 T:2236 M:1497034752   DEBUG: CWinEventsWin32::WndProcWindow lost focus
  877. 00:11:15 T:2236 M:1497034752   DEBUG: CAnnouncementManager - Announcement: ApplicationStop from xbmc
  878. 00:11:15 T:2236 M:1497010176  NOTICE: Storing total System Uptime
  879. 00:11:15 T:2236 M:1497010176  NOTICE: Saving settings
  880. 00:11:15 T:2236 M:1497030656  NOTICE: stop all
  881. 00:11:15 T:2236 M:1497030656   DEBUG: CNetwork::NetworkMessage - Signaling network services to stop
  882. 00:11:15 T:2236 M:1497030656  NOTICE: ES: Stopping event server
  883. 00:11:15 T:2236 M:1497030656   DEBUG: CNetwork::NetworkMessage - Waiting for network services to stop
  884. 00:11:15 T:2236 M:1497026560   DEBUG: CLastfmScrobbler: Journal with 0 entries saved to special://masterprofile/LastfmScrobbler.xml
  885. 00:11:15 T:2236 M:1497026560   DEBUG: CLibrefmScrobbler: Journal with 0 entries saved to special://masterprofile/LibrefmScrobbler.xml
  886. 00:11:15 T:4408 M:1496829952  NOTICE: ES: UDP Event server stopped
  887. 00:11:15 T:4408 M:1496829952   DEBUG: Thread 4408 terminating
  888. 00:11:15 T:2256 M:1496731648   DEBUG: Thread 2256 terminating
  889. 00:11:15 T:2236 M:1496760320  NOTICE: stop sap announcement listener
  890. 00:11:15 T:2236 M:1496760320  NOTICE: clean cached files!
  891. 00:11:15 T:2236 M:1496756224  NOTICE: unload skin
  892. 00:11:15 T:2236 M:1496756224   DEBUG: CGUIAudioManager::DeInitialize
  893. 00:11:15 T:2236 M:1496756224   DEBUG: ------ Window Deinit (MyVideo.xml) ------
  894. 00:11:15 T:2236 M:1496743936   DEBUG: ------ Window Deinit (Pointer.xml) ------
  895. 00:11:15 T:2236 M:1496743936   DEBUG: ------ Window Deinit (DialogMuteBug.xml) ------
  896. 00:11:15 T:2236 M:1499594752  NOTICE: stop python
  897. 00:11:15 T:2236 M:1520848896  NOTICE: stopped
  898. 00:11:15 T:2236 M:1520848896  NOTICE: destroy
  899. 00:11:15 T:2236 M:1520844800    INFO: ADDON: cpluff: 'Plug-in metadata.albums.allmusic.com has been uninstalled.'
  900. 00:11:15 T:2236 M:1520844800   DEBUG: ADDON: cpluff: 'The information object at address 03696F78 was unregistered.'
  901. 00:11:15 T:2236 M:1520844800    INFO: ADDON: cpluff: 'Plug-in repository.xbmc.org has been uninstalled.'
  902. 00:11:15 T:2236 M:1520844800   DEBUG: ADDON: cpluff: 'The information object at address 035A2E50 was unregistered.'
  903. 00:11:15 T:2236 M:1520844800    INFO: ADDON: cpluff: 'Plug-in screensaver.rsxs.euphoria has been uninstalled.'
  904. 00:11:15 T:2236 M:1520844800   DEBUG: ADDON: cpluff: 'The information object at address 035A2E98 was unregistered.'
  905. 00:11:15 T:2236 M:1520844800    INFO: ADDON: cpluff: 'Plug-in screensaver.xbmc.builtin.black has been uninstalled.'
  906. 00:11:15 T:2236 M:1520844800   DEBUG: ADDON: cpluff: 'The information object at address 035A2F70 was unregistered.'
  907. 00:11:15 T:2236 M:1520844800    INFO: ADDON: cpluff: 'Plug-in visualization.projectm has been uninstalled.'
  908. 00:11:15 T:2236 M:1520844800   DEBUG: ADDON: cpluff: 'The information object at address 035A3318 was unregistered.'
  909. 00:11:15 T:2236 M:1520844800    INFO: ADDON: cpluff: 'Plug-in screensaver.xbmc.builtin.dim has been uninstalled.'
  910. 00:11:15 T:2236 M:1520844800   DEBUG: ADDON: cpluff: 'The information object at address 035A3000 was unregistered.'
  911. 00:11:15 T:2236 M:1520844800    INFO: ADDON: cpluff: 'Plug-in metadata.artists.allmusic.com has been uninstalled.'
  912. 00:11:15 T:2236 M:1520844800   DEBUG: ADDON: cpluff: 'The information object at address 035A18E0 was unregistered.'
  913. 00:11:15 T:2236 M:1520844800    INFO: ADDON: cpluff: 'Plug-in metadata.themoviedb.org has been uninstalled.'
  914. 00:11:15 T:2236 M:1520844800   DEBUG: ADDON: cpluff: 'The information object at address 035A22B0 was unregistered.'
  915. 00:11:15 T:2236 M:1520844800    INFO: ADDON: cpluff: 'Plug-in xbmc.metadata has been uninstalled.'
  916. 00:11:15 T:2236 M:1520844800   DEBUG: ADDON: cpluff: 'The information object at address 035A35A0 was unregistered.'
  917. 00:11:15 T:2236 M:1520844800    INFO: ADDON: cpluff: 'Plug-in skin.confluence has been uninstalled.'
  918. 00:11:15 T:2236 M:1520844800   DEBUG: ADDON: cpluff: 'The information object at address 035A30D8 was unregistered.'
  919. 00:11:15 T:2236 M:1520844800    INFO: ADDON: cpluff: 'Plug-in visualization.glspectrum has been uninstalled.'
  920. 00:11:15 T:2236 M:1520844800   DEBUG: ADDON: cpluff: 'The information object at address 035A31B0 was unregistered.'
  921. 00:11:15 T:2236 M:1520844800    INFO: ADDON: cpluff: 'Plug-in visualization.milkdrop has been uninstalled.'
  922. 00:11:15 T:2236 M:1520844800   DEBUG: ADDON: cpluff: 'The information object at address 035A3240 was unregistered.'
  923. 00:11:15 T:2236 M:1520844800    INFO: ADDON: cpluff: 'Plug-in xbmc.gui has been uninstalled.'
  924. 00:11:15 T:2236 M:1520844800   DEBUG: ADDON: cpluff: 'The information object at address 035A3510 was unregistered.'
  925. 00:11:15 T:2236 M:1520844800    INFO: ADDON: cpluff: 'Plug-in visualization.dxspectrum has been uninstalled.'
  926. 00:11:15 T:2236 M:1520844800   DEBUG: ADDON: cpluff: 'The information object at address 035A3120 was unregistered.'
  927. 00:11:15 T:2236 M:1520844800    INFO: ADDON: cpluff: 'Plug-in xbmc.core has been uninstalled.'
  928. 00:11:15 T:2236 M:1520844800   DEBUG: ADDON: cpluff: 'The information object at address 035A34C8 was unregistered.'
  929. 00:11:15 T:2236 M:1520844800    INFO: ADDON: cpluff: 'Plug-in screensaver.xbmc.builtin.slideshow has been uninstalled.'
  930. 00:11:15 T:2236 M:1520844800   DEBUG: ADDON: cpluff: 'The information object at address 035A3048 was unregistered.'
  931. 00:11:15 T:2236 M:1520844800    INFO: ADDON: cpluff: 'Plug-in metadata.common.htbackdrops.com has been uninstalled.'
  932. 00:11:15 T:2236 M:1520844800   DEBUG: ADDON: cpluff: 'The information object at address 0369E2E0 was unregistered.'
  933. 00:11:15 T:2236 M:1520844800    INFO: ADDON: cpluff: 'Plug-in metadata.common.allmusic.com has been uninstalled.'
  934. 00:11:15 T:2236 M:1520844800   DEBUG: ADDON: cpluff: 'The information object at address 03698F20 was unregistered.'
  935. 00:11:15 T:2236 M:1520844800    INFO: ADDON: cpluff: 'Plug-in metadata.tvdb.com has been uninstalled.'
  936. 00:11:15 T:2236 M:1520844800   DEBUG: ADDON: cpluff: 'The information object at address 035A2E08 was unregistered.'
  937. 00:11:15 T:2236 M:1520844800    INFO: ADDON: cpluff: 'Plug-in weather.xbmc.builtin has been uninstalled.'
  938. 00:11:15 T:2236 M:1520844800   DEBUG: ADDON: cpluff: 'The information object at address 035A3438 was unregistered.'
  939. 00:11:15 T:2236 M:1520844800    INFO: ADDON: cpluff: 'Plug-in metadata.common.last.fm has been uninstalled.'
  940. 00:11:15 T:2236 M:1520844800   DEBUG: ADDON: cpluff: 'The information object at address 0369EEE8 was unregistered.'
  941. 00:11:15 T:2236 M:1520844800    INFO: ADDON: cpluff: 'Plug-in metadata.common.dtrailer.com has been uninstalled.'
  942. 00:11:15 T:2236 M:1520844800   DEBUG: ADDON: cpluff: 'The information object at address 03699CD8 was unregistered.'
  943. 00:11:15 T:2236 M:1520844800    INFO: ADDON: cpluff: 'Plug-in metadata.common.themoviedb.org has been uninstalled.'
  944. 00:11:15 T:2236 M:1520844800   DEBUG: ADDON: cpluff: 'The information object at address 0369F2A8 was unregistered.'
  945. 00:11:15 T:2236 M:1520844800    INFO: ADDON: cpluff: 'Plug-in xbmc.python has been uninstalled.'
  946. 00:11:15 T:2236 M:1520844800   DEBUG: ADDON: cpluff: 'The information object at address 035A3630 was unregistered.'
  947. 00:11:15 T:2236 M:1520844800    INFO: ADDON: cpluff: 'Plug-in screensaver.rsxs.plasma has been uninstalled.'
  948. 00:11:15 T:2236 M:1520844800   DEBUG: ADDON: cpluff: 'The information object at address 035A2F28 was unregistered.'
  949. 00:11:15 T:2236 M:1520844800    INFO: ADDON: cpluff: 'Plug-in visualization.waveform has been uninstalled.'
  950. 00:11:15 T:2236 M:1520844800   DEBUG: ADDON: cpluff: 'The information object at address 035A33F0 was unregistered.'
  951. 00:11:15 T:2236 M:1520844800    INFO: ADDON: cpluff: 'Plug-in xbmc.addon has been uninstalled.'
  952. 00:11:15 T:2236 M:1520844800   DEBUG: ADDON: cpluff: 'The information object at address 035A3480 was unregistered.'
  953. 00:11:15 T:2236 M:1520844800    INFO: ADDON: cpluff: 'Plug-in metadata.mtv.com has been uninstalled.'
  954. 00:11:15 T:2236 M:1520844800   DEBUG: ADDON: cpluff: 'The information object at address 0369F630 was unregistered.'
  955. 00:11:15 T:2236 M:1520844800    INFO: ADDON: cpluff: 'Plug-in visualization.itunes has been uninstalled.'
  956. 00:11:15 T:2236 M:1520844800   DEBUG: ADDON: cpluff: 'The information object at address 035A31F8 was unregistered.'
  957. 00:11:15 T:2236 M:1520861184  NOTICE: unload sections
  958. 00:11:15 T:2236 M:1520861184   DEBUG: SECTION:UnloadAll(DLL: special://xbmcbin/system/cpluff.dll)
  959. 00:11:15 T:2236 M:1520861184   DEBUG: Win32DllLoader::Unload cpluff.dll
  960. 00:11:15 T:2236 M:1520861184   DEBUG: FreeLibrary(libexpat.dll) -> 02D78C18
  961. 00:11:15 T:2236 M:1520861184   DEBUG: Win32DllLoader::Unload libexpat.dll
  962. 00:11:15 T:2236 M:1521061888   DEBUG: SECTION:UnloadAll(DLL: special://xbmcbin/system/ImageLib.dll)
  963. 00:11:15 T:2236 M:1521061888   DEBUG: Win32DllLoader::Unload ImageLib.dll
  964. 00:11:15 T:2236 M:1521848320   DEBUG: SECTION:UnloadAll(DLL: special://xbmcbin/system/libcurl.dll)
  965. 00:11:15 T:2236 M:1521848320   DEBUG: Win32DllLoader::Unload libcurl.dll
  966. 00:11:15 T:2236 M:1521848320   DEBUG: FreeLibrary(libidn-11.dll) -> 076D7298
  967. 00:11:15 T:2236 M:1521848320   DEBUG: Win32DllLoader::Unload libidn-11.dll
  968. 00:11:15 T:2236 M:1521848320   DEBUG: FreeLibrary(libeay32.dll) -> 076D72E8
  969. 00:11:15 T:2236 M:1521848320   DEBUG: FreeLibrary(libssl32.dll) -> 076D7338
  970. 00:11:15 T:2236 M:1521848320   DEBUG: Win32DllLoader::Unload libssl32.dll
  971. 00:11:15 T:2236 M:1521848320   DEBUG: FreeLibrary(libeay32.dll) -> 076D72E8
  972. 00:11:15 T:2236 M:1521848320   DEBUG: Win32DllLoader::Unload libeay32.dll
  973. 00:11:15 T:2236 M:1523273728   DEBUG: CLastfmScrobbler: Journal with 0 entries saved to special://masterprofile/LastfmScrobbler.xml
  974. 00:11:15 T:2236 M:1523273728   DEBUG: CLibrefmScrobbler: Journal with 0 entries saved to special://masterprofile/LibrefmScrobbler.xml